Observation data for Lake Alan Henry on 10/13/2019      Previous  Date       Current Mesonet Observations  Soil Data  Daily Summary Page  Observations in Plain Language
KAHS 130500Z 22004KT 15/M01 A30 RMK A01 T01471009  RH  034%=      5-min Rain = 0
KAHS 130501Z 22003KT 15/M01 A30 RMK A01 T01471009  RH  034%=      5-min Rain = 0
KAHS 130502Z 22004KT 15/M01 A30 RMK A01 T01471009  RH  034%=      5-min Rain = 0
KAHS 130503Z 22003KT 15/M01 A30 RMK A01 T01481008  RH  034%=      5-min Rain = 0
KAHS 130504Z 22003KT 15/M01 A30 RMK A01 T01481008  RH  034%=      5-min Rain = 0
KAHS 130505Z 21003KT 15/M01 A2999 RMK A01 T01471008  RH  034%=      5-min Rain = 0
KAHS 130506Z 22003KT 15/M01 A2999 RMK A01 T01461008  RH  035%=      5-min Rain = 0
KAHS 130507Z 21003KT 15/M01 A2999 RMK A01 T01461008  RH  035%=      5-min Rain = 0
KAHS 130508Z 22003KT 15/M01 A2999 RMK A01 T01461009  RH  035%=      5-min Rain = 0
KAHS 130509Z 21003KT 15/M01 A2999 RMK A01 T01451009  RH  035%=      5-min Rain = 0
KAHS 130510Z 21004KT 15/M01 A2999 RMK A01 T01451009  RH  035%=      5-min Rain = 0
KAHS 130511Z 21004KT 15/M01 A2999 RMK A01 T01451009  RH  035%=      5-min Rain = 0
KAHS 130512Z 21004KT 15/M01 A2999 RMK A01 T01451009  RH  035%=      5-min Rain = 0
KAHS 130513Z 21004KT 15/M01 A2999 RMK A01 T01451009  RH  035%=      5-min Rain = 0
KAHS 130514Z 21004KT 14/M01 A2999 RMK A01 T01441008  RH  035%=      5-min Rain = 0
KAHS 130515Z 21004KT 14/M01 A2999 RMK A01 T01431009  RH  035%=      5-min Rain = 0
KAHS 130516Z 21004KT 14/M01 A2999 RMK A01 T01431009  RH  035%=      5-min Rain = 0
KAHS 130517Z 21003KT 14/M01 A2999 RMK A01 T01431009  RH  035%=      5-min Rain = 0
KAHS 130518Z 21003KT 14/M01 A2999 RMK A01 T01421009  RH  035%=      5-min Rain = 0
KAHS 130519Z 21003KT 14/M01 A2999 RMK A01 T01421009  RH  036%=      5-min Rain = 0
KAHS 130520Z 21004KT 14/M01 A2999 RMK A01 T01411009  RH  036%=      5-min Rain = 0
KAHS 130521Z 20004KT 14/M01 A2999 RMK A01 T01411009  RH  036%=      5-min Rain = 0
KAHS 130522Z 20004KT 14/M01 A2999 RMK A01 T01411008  RH  036%=      5-min Rain = 0
KAHS 130523Z 20004KT 14/M01 A2999 RMK A01 T01401008  RH  036%=      5-min Rain = 0
KAHS 130524Z 20005KT 14/M01 A2999 RMK A01 T01391008  RH  036%=      5-min Rain = 0
KAHS 130525Z 20005KT 14/M01 A2999 RMK A01 T01391007  RH  037%=      5-min Rain = 0
KAHS 130526Z 20005KT 14/M01 A2999 RMK A01 T01381007  RH  037%=      5-min Rain = 0
KAHS 130527Z 20005KT 14/M01 A2999 RMK A01 T01371007  RH  037%=      5-min Rain = 0
KAHS 130528Z 20005KT 14/M01 A2999 RMK A01 T01361007  RH  037%=      5-min Rain = 0
KAHS 130529Z 19006KT 14/M01 A2999 RMK A01 T01351007  RH  037%=      5-min Rain = 0
KAHS 130530Z 19006KT 13/M01 A2999 RMK A01 T01341008  RH  038%=      5-min Rain = 0
KAHS 130531Z 19006KT 13/M01 A2999 RMK A01 T01341008  RH  038%=      5-min Rain = 0
KAHS 130532Z 19006KT 13/M01 A2999 RMK A01 T01331008  RH  038%=      5-min Rain = 0
KAHS 130533Z 19005KT 13/M01 A2999 RMK A01 T01331007  RH  038%=      5-min Rain = 0
KAHS 130534Z 19005KT 13/M01 A2999 RMK A01 T01321007  RH  038%=      5-min Rain = 0
KAHS 130535Z 20005KT 13/M01 A2999 RMK A01 T01321008  RH  038%=      5-min Rain = 0
KAHS 130536Z 20004KT 13/M01 A2999 RMK A01 T01321007  RH  038%=      5-min Rain = 0
KAHS 130537Z 20004KT 13/M01 A2999 RMK A01 T01321007  RH  038%=      5-min Rain = 0
KAHS 130538Z 20005KT 13/M01 A2999 RMK A01 T01311007  RH  038%=      5-min Rain = 0
KAHS 130539Z 20005KT 13/M01 A2999 RMK A01 T01311007  RH  038%=      5-min Rain = 0
KAHS 130540Z 20005KT 13/M01 A2999 RMK A01 T01321006  RH  038%=      5-min Rain = 0
KAHS 130541Z 20005KT 13/M01 A2999 RMK A01 T01321007  RH  038%=      5-min Rain = 0
KAHS 130542Z 20005KT 13/M01 A2999 RMK A01 T01321007  RH  038%=      5-min Rain = 0
KAHS 130543Z 20005KT 13/M01 A2999 RMK A01 T01321007  RH  039%=      5-min Rain = 0
KAHS 130544Z 20006KT 13/M01 A2999 RMK A01 T01321006  RH  039%=      5-min Rain = 0
KAHS 130545Z 21006KT 13/M01 A2998 RMK A01 T01311006  RH  039%=      5-min Rain = 0
KAHS 130546Z 21006KT 13/M01 A2998 RMK A01 T01311006  RH  039%=      5-min Rain = 0
KAHS 130547Z 21005KT 13/M01 A2998 RMK A01 T01301006  RH  039%=      5-min Rain = 0
KAHS 130548Z 22006KT 13/M01 A2998 RMK A01 T01301005  RH  039%=      5-min Rain = 0
KAHS 130549Z 22006KT 13/M01 A2998 RMK A01 T01301005  RH  040%=      5-min Rain = 0
KAHS 130550Z 22006KT 13/M00 A2998 RMK A01 T01301004  RH  040%=      5-min Rain = 0
KAHS 130551Z 22006KT 13/M00 A2998 RMK A01 T01301003  RH  040%=      5-min Rain = 0
KAHS 130552Z 22006KT 13/M00 A2998 RMK A01 T01311003  RH  040%=      5-min Rain = 0
KAHS 130553Z 22006KT 13/M00 A2998 RMK A01 T01311003  RH  040%=      5-min Rain = 0
KAHS 130554Z 21006KT 13/M00 A2998 RMK A01 T01321003  RH  040%=      5-min Rain = 0
KAHS 130555Z 22005KT 13/M00 A2998 RMK A01 T01321003  RH  039%=      5-min Rain = 0
KAHS 130556Z 21006KT 13/M00 A2998 RMK A01 T01331003  RH  039%=      5-min Rain = 0
KAHS 130557Z 22006KT 13/M00 A2998 RMK A01 T01341003  RH  039%=      5-min Rain = 0
KAHS 130558Z 22007KT 14/M00 A2998 RMK A01 T01351003  RH  038%=      5-min Rain = 0
KAHS 130559Z 22007KT 14/M00 A2998 RMK A01 T01371004  RH  038%=      5-min Rain = 0
KAHS 130600Z 22007KT 14/M00 A2998 RMK A01 T01391004  RH  037%=      5-min Rain = 0
KAHS 130601Z 22006KT 14/M01 A2998 RMK A01 T01391005  RH  037%=      5-min Rain = 0
KAHS 130602Z 22007KT 14/M01 A2997 RMK A01 T01401005  RH  037%=      5-min Rain = 0
KAHS 130603Z 22008KT 14/M01 A2997 RMK A01 T01401005  RH  037%=      5-min Rain = 0
KAHS 130604Z 22008KT 14/M01 A2997 RMK A01 T01421005  RH  036%=      5-min Rain = 0
KAHS 130605Z 21008KT 14/M01 A2997 RMK A01 T01431005  RH  036%=      5-min Rain = 0
KAHS 130606Z 22005KT 14/M00 A2997 RMK A01 T01441004  RH  036%=      5-min Rain = 0
KAHS 130607Z 22006KT 14/M00 A2997 RMK A01 T01441004  RH  036%=      5-min Rain = 0
KAHS 130608Z 22007KT 14/M00 A2997 RMK A01 T01441004  RH  036%=      5-min Rain = 0
KAHS 130609Z 22006KT 14/M00 A2997 RMK A01 T01431003  RH  037%=      5-min Rain = 0
KAHS 130610Z 22007KT 14/M00 A2997 RMK A01 T01431003  RH  037%=      5-min Rain = 0
KAHS 130611Z 22007KT 14/M00 A2997 RMK A01 T01431002  RH  037%=      5-min Rain = 0
KAHS 130612Z 21007KT 14/M00 A2997 RMK A01 T01431002  RH  037%=      5-min Rain = 0
KAHS 130613Z 22007KT 14/M00 A2997 RMK A01 T01431002  RH  037%=      5-min Rain = 0
KAHS 130614Z 21007KT 14/M00 A2997 RMK A01 T01441002  RH  037%=      5-min Rain = 0
KAHS 130615Z 21006KT 14/M00 A2997 RMK A01 T01431003  RH  037%=      5-min Rain = 0
KAHS 130616Z 21006KT 14/M00 A2997 RMK A01 T01431003  RH  037%=      5-min Rain = 0
KAHS 130617Z 21006KT 14/M00 A2997 RMK A01 T01421003  RH  037%=      5-min Rain = 0
KAHS 130618Z 21006KT 14/M00 A2997 RMK A01 T01421003  RH  037%=      5-min Rain = 0
KAHS 130619Z 21006KT 14/M00 A2997 RMK A01 T01421003  RH  037%=      5-min Rain = 0
KAHS 130620Z 21006KT 14/M00 A2997 RMK A01 T01411004  RH  037%=      5-min Rain = 0
KAHS 130621Z 20005KT 14/M00 A2997 RMK A01 T01411004  RH  037%=      5-min Rain = 0
KAHS 130622Z 20005KT 14/M00 A2997 RMK A01 T01411003  RH  037%=      5-min Rain = 0
KAHS 130623Z 20004KT 14/M00 A2997 RMK A01 T01411003  RH  037%=      5-min Rain = 0
KAHS 130624Z 20005KT 14/M00 A2997 RMK A01 T01401003  RH  037%=      5-min Rain = 0
KAHS 130625Z 21004KT 14/M00 A2997 RMK A01 T01391003  RH  038%=      5-min Rain = 0
KAHS 130626Z 21004KT 14/M00 A2997 RMK A01 T01391003  RH  038%=      5-min Rain = 0
KAHS 130627Z 21004KT 14/M00 A2997 RMK A01 T01391002  RH  038%=      5-min Rain = 0
KAHS 130628Z 20004KT 14/M00 A2997 RMK A01 T01381002  RH  038%=      5-min Rain = 0
KAHS 130629Z 20004KT 14/M00 A2997 RMK A01 T01381002  RH  038%=      5-min Rain = 0
KAHS 130630Z 20004KT 14/M00 A2997 RMK A01 T01371002  RH  039%=      5-min Rain = 0
KAHS 130631Z 19005KT 14/M00 A2997 RMK A01 T01371001  RH  039%=      5-min Rain = 0
KAHS 130632Z 19004KT 14/00 A2997 RMK A01 T013700-0  RH  039%=      5-min Rain = 0
KAHS 130633Z 19004KT 14/00 A2997 RMK A01 T013600-0  RH  039%=      5-min Rain = 0
KAHS 130634Z 20004KT 14/00 A2997 RMK A01 T01360001  RH  039%=      5-min Rain = 0
KAHS 130635Z 20004KT 14/00 A2997 RMK A01 T01360001  RH  040%=      5-min Rain = 0
KAHS 130636Z 21004KT 14/00 A2997 RMK A01 T01360001  RH  040%=      5-min Rain = 0
KAHS 130637Z 21003KT 14/00 A2997 RMK A01 T01360001  RH  039%=      5-min Rain = 0
KAHS 130638Z 21003KT 14/00 A2997 RMK A01 T01360000  RH  039%=      5-min Rain = 0
KAHS 130639Z 21003KT 14/00 A2997 RMK A01 T01360000  RH  039%=      5-min Rain = 0
KAHS 130640Z 21003KT 14/00 A2997 RMK A01 T013600-0  RH  039%=      5-min Rain = 0
KAHS 130641Z 21004KT 14/M00 A2997 RMK A01 T01361001  RH  039%=      5-min Rain = 0
KAHS 130642Z 21004KT 14/M00 A2997 RMK A01 T01361001  RH  039%=      5-min Rain = 0
KAHS 130643Z 21004KT 14/M00 A2997 RMK A01 T01361001  RH  039%=      5-min Rain = 0
KAHS 130644Z 21005KT 14/M00 A2997 RMK A01 T01351001  RH  039%=      5-min Rain = 0
KAHS 130645Z 21005KT 13/M00 A2997 RMK A01 T01341001  RH  039%=      5-min Rain = 0
KAHS 130646Z 21005KT 13/M00 A2997 RMK A01 T01341001  RH  039%=      5-min Rain = 0
KAHS 130647Z 21004KT 13/M00 A2997 RMK A01 T01331001  RH  040%=      5-min Rain = 0
KAHS 130648Z 21004KT 13/M00 A2997 RMK A01 T01321001  RH  040%=      5-min Rain = 0
KAHS 130649Z 21004KT 13/M00 A2997 RMK A01 T01311001  RH  040%=      5-min Rain = 0
KAHS 130650Z 21005KT 13/M00 A2997 RMK A01 T01311001  RH  040%=      5-min Rain = 0
KAHS 130651Z 21005KT 13/M00 A2997 RMK A01 T01301001  RH  040%=      5-min Rain = 0
KAHS 130652Z 21006KT 13/M00 A2997 RMK A01 T01311001  RH  040%=      5-min Rain = 0
KAHS 130653Z 21006KT 13/M00 A2997 RMK A01 T01311001  RH  040%=      5-min Rain = 0
KAHS 130654Z 21006KT 13/00 A2997 RMK A01 T013100-0  RH  040%=      5-min Rain = 0
KAHS 130655Z 21006KT 13/00 A2997 RMK A01 T013100-0  RH  041%=      5-min Rain = 0
KAHS 130656Z 21006KT 13/M00 A2997 RMK A01 T01311001  RH  040%=      5-min Rain = 0
KAHS 130657Z 22006KT 13/M00 A2997 RMK A01 T01311002  RH  040%=      5-min Rain = 0
KAHS 130658Z 22006KT 13/M00 A2997 RMK A01 T01321002  RH  040%=      5-min Rain = 0
KAHS 130659Z 22007KT 13/M00 A2997 RMK A01 T01321002  RH  040%=      5-min Rain = 0
KAHS 130700Z 22006KT 13/M00 A2997 RMK A01 T01331002  RH  039%=      5-min Rain = 0
KAHS 130701Z 22007KT 13/M00 A2997 RMK A01 T01341002  RH  039%=      5-min Rain = 0
KAHS 130702Z 22008KT 13/M00 A2996 RMK A01 T01341001  RH  039%=      5-min Rain = 0
KAHS 130703Z 22008KT 13/M00 A2996 RMK A01 T01341001  RH  040%=      5-min Rain = 0
KAHS 130704Z 22008KT 14/00 A2996 RMK A01 T013500-0  RH  039%=      5-min Rain = 0
KAHS 130705Z 22010KT 14/00 A2996 RMK A01 T013500-0  RH  039%=      5-min Rain = 0
KAHS 130706Z 21009KT 14/M00 A2996 RMK A01 T01371001  RH  039%=      5-min Rain = 0
KAHS 130707Z 22008KT 14/M00 A2996 RMK A01 T01381002  RH  038%=      5-min Rain = 0
KAHS 130708Z 21009KT 14/M00 A2996 RMK A01 T01371004  RH  038%=      5-min Rain = 0
KAHS 130709Z 21009KT 14/M01 A2996 RMK A01 T01381005  RH  037%=      5-min Rain = 0
KAHS 130710Z 21009KT 14/M01 A2996 RMK A01 T01381006  RH  037%=      5-min Rain = 0
KAHS 130711Z 21009KT 14/M01 A2996 RMK A01 T01381007  RH  037%=      5-min Rain = 0
KAHS 130712Z 21010KT 14/M01 A2996 RMK A01 T01381008  RH  037%=      5-min Rain = 0
KAHS 130713Z 21009KT 14/M01 A2996 RMK A01 T01381009  RH  036%=      5-min Rain = 0
KAHS 130714Z 21009KT 14/M01 A2996 RMK A01 T01381010  RH  036%=      5-min Rain = 0
KAHS 130715Z 21011KT 14/M01 A2996 RMK A01 T01381010  RH  036%=      5-min Rain = 0
KAHS 130716Z 22010KT 14/M01 A2996 RMK A01 T01391011  RH  035%=      5-min Rain = 0
KAHS 130717Z 21010KT 14/M01 A2995 RMK A01 T01391011  RH  035%=      5-min Rain = 0
KAHS 130718Z 21010G15KT 14/M01 A2995 RMK A01 T01401012  RH  035%=      5-min Rain = 0
KAHS 130719Z 22012KT 14/M01 A2995 RMK A01 T01401012  RH  035%=      5-min Rain = 0
KAHS 130720Z 21013KT 14/M01 A2995 RMK A01 T01421013  RH  034%=      5-min Rain = 0
KAHS 130721Z 22010KT 14/M01 A2995 RMK A01 T01421013  RH  034%=      5-min Rain = 0
KAHS 130722Z 22010KT 14/M01 A2995 RMK A01 T01431012  RH  034%=      5-min Rain = 0
KAHS 130723Z 22012KT 14/M01 A2995 RMK A01 T01431011  RH  035%=      5-min Rain = 0
KAHS 130724Z 23011G16KT 14/M01 A2995 RMK A01 T01431011  RH  035%=      5-min Rain = 0
KAHS 130725Z 23011KT 14/M01 A2995 RMK A01 T01441009  RH  035%=      5-min Rain = 0
KAHS 130726Z 22011KT 14/M01 A2995 RMK A01 T01441009  RH  035%=      5-min Rain = 0
KAHS 130727Z 23013G18KT 14/M01 A2995 RMK A01 T01441010  RH  035%=      5-min Rain = 0
KAHS 130728Z 23011KT 15/M01 A2995 RMK A01 T01451011  RH  034%=      5-min Rain = 0
KAHS 130729Z 23011KT 15/M01 A2996 RMK A01 T01451012  RH  034%=      5-min Rain = 0
KAHS 130730Z 23010KT 14/M01 A2996 RMK A01 T01441013  RH  034%=      5-min Rain = 0
KAHS 130731Z 23011G17KT 15/M02 A2996 RMK A01 T01451015  RH  033%=      5-min Rain = 0
KAHS 130732Z 24011G16KT 15/M02 A2996 RMK A01 T01451016  RH  033%=      5-min Rain = 0
KAHS 130733Z 24011KT 15/M02 A2996 RMK A01 T01451016  RH  033%=      5-min Rain = 0
KAHS 130734Z 23011KT 15/M02 A2996 RMK A01 T01451017  RH  033%=      5-min Rain = 0
KAHS 130735Z 24011KT 15/M02 A2996 RMK A01 T01451017  RH  033%=      5-min Rain = 0
KAHS 130736Z 25010KT 15/M02 A2996 RMK A01 T01451017  RH  033%=      5-min Rain = 0
KAHS 130737Z 25012KT 15/M02 A2996 RMK A01 T01451017  RH  033%=      5-min Rain = 0
KAHS 130738Z 25010KT 15/M02 A2996 RMK A01 T01451016  RH  033%=      5-min Rain = 0
KAHS 130739Z 25009KT 15/M02 A2996 RMK A01 T01451015  RH  033%=      5-min Rain = 0
KAHS 130740Z 25010KT 14/M01 A2996 RMK A01 T01441014  RH  034%=      5-min Rain = 0
KAHS 130741Z 26008KT 14/M01 A2996 RMK A01 T01441013  RH  034%=      5-min Rain = 0
KAHS 130742Z 25010KT 14/M01 A2996 RMK A01 T01441012  RH  034%=      5-min Rain = 0
KAHS 130743Z 24010KT 14/M01 A2996 RMK A01 T01441013  RH  034%=      5-min Rain = 0
KAHS 130744Z 25010KT 14/M01 A2996 RMK A01 T01431014  RH  034%=      5-min Rain = 0
KAHS 130745Z 24008KT 14/M02 A2996 RMK A01 T01431015  RH  034%=      5-min Rain = 0
KAHS 130746Z 24008KT 14/M02 A2996 RMK A01 T01431015  RH  034%=      5-min Rain = 0
KAHS 130747Z 24009KT 14/M02 A2996 RMK A01 T01421016  RH  034%=      5-min Rain = 0
KAHS 130748Z 24009KT 14/M02 A2996 RMK A01 T01421016  RH  033%=      5-min Rain = 0
KAHS 130749Z 25010KT 14/M02 A2996 RMK A01 T01421018  RH  033%=      5-min Rain = 0
KAHS 130750Z 25010KT 14/M02 A2996 RMK A01 T01431018  RH  033%=      5-min Rain = 0
KAHS 130751Z 24009KT 14/M02 A2996 RMK A01 T01431018  RH  033%=      5-min Rain = 0
KAHS 130752Z 24011KT 14/M02 A2996 RMK A01 T01421018  RH  033%=      5-min Rain = 0
KAHS 130753Z 24010KT 14/M02 A2996 RMK A01 T01421018  RH  033%=      5-min Rain = 0
KAHS 130754Z 24010KT 14/M02 A2997 RMK A01 T01421017  RH  033%=      5-min Rain = 0
KAHS 130755Z 25013KT 14/M02 A2996 RMK A01 T01431017  RH  033%=      5-min Rain = 0
KAHS 130756Z 25009G15KT 15/M02 A2997 RMK A01 T01451018  RH  033%=      5-min Rain = 0
KAHS 130757Z 25010KT 14/M02 A2997 RMK A01 T01441017  RH  033%=      5-min Rain = 0
KAHS 130758Z 26008KT 14/M02 A2997 RMK A01 T01431017  RH  033%=      5-min Rain = 0
KAHS 130759Z 26008KT 14/M02 A2997 RMK A01 T01411016  RH  034%=      5-min Rain = 0
KAHS 130800Z 26009KT 14/M02 A2997 RMK A01 T01391016  RH  034%=      5-min Rain = 0
KAHS 130801Z 26008KT 14/M02 A2997 RMK A01 T01361016  RH  035%=      5-min Rain = 0
KAHS 130802Z 26008KT 14/M02 A2997 RMK A01 T01351016  RH  035%=      5-min Rain = 0
KAHS 130803Z 26008KT 13/M02 A2997 RMK A01 T01341015  RH  036%=      5-min Rain = 0
KAHS 130804Z 26007KT 13/M02 A2997 RMK A01 T01331015  RH  036%=      5-min Rain = 0
KAHS 130805Z 25009KT 13/M02 A2997 RMK A01 T01321015  RH  036%=      5-min Rain = 0
KAHS 130806Z 25008KT 13/M02 A2997 RMK A01 T01321016  RH  036%=      5-min Rain = 0
KAHS 130807Z 25009KT 13/M02 A2997 RMK A01 T01321016  RH  036%=      5-min Rain = 0
KAHS 130808Z 25009KT 13/M02 A2997 RMK A01 T01321016  RH  036%=      5-min Rain = 0
KAHS 130809Z 25009KT 13/M02 A2997 RMK A01 T01321016  RH  036%=      5-min Rain = 0
KAHS 130810Z 25010KT 13/M02 A2997 RMK A01 T01321016  RH  036%=      5-min Rain = 0
KAHS 130811Z 25009KT 13/M02 A2997 RMK A01 T01321017  RH  036%=      5-min Rain = 0
KAHS 130812Z 25009KT 13/M02 A2997 RMK A01 T01321017  RH  036%=      5-min Rain = 0
KAHS 130813Z 24009KT 13/M02 A2996 RMK A01 T01321017  RH  036%=      5-min Rain = 0
KAHS 130814Z 24010KT 13/M02 A2996 RMK A01 T01321017  RH  036%=      5-min Rain = 0
KAHS 130815Z 24009KT 13/M02 A2997 RMK A01 T01321017  RH  036%=      5-min Rain = 0
KAHS 130816Z 24009KT 13/M02 A2997 RMK A01 T01321017  RH  036%=      5-min Rain = 0
KAHS 130817Z 24009KT 13/M02 A2997 RMK A01 T01321017  RH  036%=      5-min Rain = 0
KAHS 130818Z 25010KT 13/M02 A2997 RMK A01 T01321017  RH  035%=      5-min Rain = 0
KAHS 130819Z 25010KT 13/M02 A2997 RMK A01 T01321017  RH  035%=      5-min Rain = 0
KAHS 130820Z 25009KT 13/M02 A2997 RMK A01 T01331018  RH  035%=      5-min Rain = 0
KAHS 130821Z 25007KT 13/M02 A2997 RMK A01 T01331018  RH  035%=      5-min Rain = 0
KAHS 130822Z 25008KT 13/M02 A2997 RMK A01 T01331018  RH  035%=      5-min Rain = 0
KAHS 130823Z 25009KT 13/M02 A2997 RMK A01 T01331018  RH  035%=      5-min Rain = 0
KAHS 130824Z 25009KT 13/M02 A2997 RMK A01 T01341018  RH  035%=      5-min Rain = 0
KAHS 130825Z 25008KT 14/M02 A2997 RMK A01 T01351018  RH  035%=      5-min Rain = 0
KAHS 130826Z 25008KT 14/M02 A2997 RMK A01 T01351018  RH  035%=      5-min Rain = 0
KAHS 130827Z 24008KT 14/M02 A2997 RMK A01 T01361018  RH  034%=      5-min Rain = 0
KAHS 130828Z 24008KT 14/M02 A2997 RMK A01 T01371019  RH  034%=      5-min Rain = 0
KAHS 130829Z 24008KT 14/M02 A2997 RMK A01 T01361019  RH  034%=      5-min Rain = 0
KAHS 130830Z 25008KT 14/M02 A2997 RMK A01 T01361019  RH  034%=      5-min Rain = 0
KAHS 130831Z 25008KT 14/M02 A2997 RMK A01 T01361019  RH  034%=      5-min Rain = 0
KAHS 130832Z 25007KT 14/M02 A2997 RMK A01 T01351019  RH  034%=      5-min Rain = 0
KAHS 130833Z 24007KT 14/M02 A2997 RMK A01 T01351019  RH  034%=      5-min Rain = 0
KAHS 130834Z 24006KT 14/M02 A2997 RMK A01 T01351019  RH  035%=      5-min Rain = 0
KAHS 130835Z 25007KT 14/M02 A2997 RMK A01 T01351018  RH  035%=      5-min Rain = 0
KAHS 130836Z 24007KT 13/M02 A2997 RMK A01 T01341019  RH  035%=      5-min Rain = 0
KAHS 130837Z 24007KT 13/M02 A2997 RMK A01 T01341019  RH  035%=      5-min Rain = 0
KAHS 130838Z 24007KT 13/M02 A2997 RMK A01 T01331019  RH  035%=      5-min Rain = 0
KAHS 130839Z 24006KT 13/M02 A2996 RMK A01 T01331019  RH  035%=      5-min Rain = 0
KAHS 130840Z 24007KT 13/M02 A2996 RMK A01 T01341018  RH  035%=      5-min Rain = 0
KAHS 130841Z 24007KT 13/M02 A2996 RMK A01 T01341018  RH  035%=      5-min Rain = 0
KAHS 130842Z 24007KT 13/M02 A2996 RMK A01 T01341018  RH  035%=      5-min Rain = 0
KAHS 130843Z 24006KT 13/M02 A2996 RMK A01 T01341019  RH  035%=      5-min Rain = 0
KAHS 130844Z 24007KT 13/M02 A2996 RMK A01 T01341018  RH  035%=      5-min Rain = 0
KAHS 130845Z 25007KT 13/M02 A2996 RMK A01 T01341019  RH  035%=      5-min Rain = 0
KAHS 130846Z 24006KT 13/M02 A2996 RMK A01 T01341018  RH  035%=      5-min Rain = 0
KAHS 130847Z 24007KT 13/M02 A2996 RMK A01 T01331018  RH  035%=      5-min Rain = 0
KAHS 130848Z 24008KT 13/M02 A2996 RMK A01 T01331018  RH  035%=      5-min Rain = 0
KAHS 130849Z 24008KT 13/M02 A2996 RMK A01 T01331018  RH  035%=      5-min Rain = 0
KAHS 130850Z 24007KT 13/M02 A2996 RMK A01 T01331018  RH  035%=      5-min Rain = 0
KAHS 130851Z 24008KT 13/M02 A2996 RMK A01 T01331018  RH  035%=      5-min Rain = 0
KAHS 130852Z 24008KT 13/M02 A2996 RMK A01 T01331018  RH  035%=      5-min Rain = 0
KAHS 130853Z 24008KT 13/M02 A2996 RMK A01 T01341018  RH  035%=      5-min Rain = 0
KAHS 130854Z 24007KT 13/M02 A2996 RMK A01 T01331018  RH  035%=      5-min Rain = 0
KAHS 130855Z 24008KT 13/M02 A2996 RMK A01 T01341018  RH  035%=      5-min Rain = 0
KAHS 130856Z 24007KT 13/M02 A2996 RMK A01 T01331018  RH  035%=      5-min Rain = 0
KAHS 130857Z 24009KT 13/M02 A2996 RMK A01 T01341018  RH  035%=      5-min Rain = 0
KAHS 130858Z 23008KT 13/M02 A2996 RMK A01 T01341018  RH  035%=      5-min Rain = 0
KAHS 130859Z 24007KT 13/M02 A2996 RMK A01 T01341018  RH  035%=      5-min Rain = 0
KAHS 130900Z 23009KT 13/M02 A2995 RMK A01 T01331017  RH  035%=      5-min Rain = 0
KAHS 130901Z 23008KT 13/M02 A2995 RMK A01 T01331017  RH  035%=      5-min Rain = 0
KAHS 130902Z 23007KT 13/M02 A2995 RMK A01 T01341017  RH  035%=      5-min Rain = 0
KAHS 130903Z 24008KT 13/M02 A2995 RMK A01 T01331017  RH  035%=      5-min Rain = 0
KAHS 130904Z 23008KT 13/M02 A2995 RMK A01 T01331016  RH  036%=      5-min Rain = 0
KAHS 130905Z 24008KT 13/M02 A2995 RMK A01 T01331016  RH  036%=      5-min Rain = 0
KAHS 130906Z 24008KT 13/M02 A2995 RMK A01 T01331016  RH  036%=      5-min Rain = 0
KAHS 130907Z 24008KT 13/M02 A2995 RMK A01 T01331016  RH  036%=      5-min Rain = 0
KAHS 130908Z 24009KT 13/M02 A2995 RMK A01 T01331017  RH  036%=      5-min Rain = 0
KAHS 130909Z 23007KT 13/M02 A2995 RMK A01 T01331017  RH  035%=      5-min Rain = 0
KAHS 130910Z 24007KT 13/M02 A2995 RMK A01 T01331017  RH  035%=      5-min Rain = 0
KAHS 130911Z 23008KT 13/M02 A2995 RMK A01 T01331017  RH  035%=      5-min Rain = 0
KAHS 130912Z 24008KT 13/M02 A2995 RMK A01 T01341017  RH  035%=      5-min Rain = 0
KAHS 130913Z 24007KT 13/M02 A2995 RMK A01 T01341017  RH  035%=      5-min Rain = 0
KAHS 130914Z 24007KT 13/M02 A2995 RMK A01 T01331016  RH  035%=      5-min Rain = 0
KAHS 130915Z 24007KT 13/M02 A2995 RMK A01 T01321016  RH  036%=      5-min Rain = 0
KAHS 130916Z 24007KT 13/M02 A2995 RMK A01 T01321016  RH  036%=      5-min Rain = 0
KAHS 130917Z 24008KT 13/M02 A2995 RMK A01 T01321016  RH  036%=      5-min Rain = 0
KAHS 130918Z 24007KT 13/M02 A2995 RMK A01 T01321016  RH  036%=      5-min Rain = 0
KAHS 130919Z 24007KT 13/M02 A2995 RMK A01 T01321016  RH  036%=      5-min Rain = 0
KAHS 130920Z 24007KT 13/M02 A2995 RMK A01 T01321016  RH  036%=      5-min Rain = 0
KAHS 130921Z 24007KT 13/M02 A2995 RMK A01 T01311016  RH  036%=      5-min Rain = 0
KAHS 130922Z 24008KT 13/M02 A2995 RMK A01 T01311016  RH  036%=      5-min Rain = 0
KAHS 130923Z 24008KT 13/M02 A2995 RMK A01 T01321017  RH  036%=      5-min Rain = 0
KAHS 130924Z 24009KT 13/M02 A2995 RMK A01 T01321017  RH  036%=      5-min Rain = 0
KAHS 130925Z 24008KT 13/M02 A2995 RMK A01 T01321017  RH  036%=      5-min Rain = 0
KAHS 130926Z 24008KT 13/M02 A2995 RMK A01 T01321017  RH  036%=      5-min Rain = 0
KAHS 130927Z 24008KT 13/M02 A2995 RMK A01 T01321017  RH  036%=      5-min Rain = 0
KAHS 130928Z 25007KT 13/M02 A2995 RMK A01 T01321017  RH  036%=      5-min Rain = 0
KAHS 130929Z 25007KT 13/M02 A2995 RMK A01 T01311017  RH  036%=      5-min Rain = 0
KAHS 130930Z 25007KT 13/M02 A2995 RMK A01 T01311017  RH  036%=      5-min Rain = 0
KAHS 130931Z 25007KT 13/M02 A2995 RMK A01 T01311017  RH  036%=      5-min Rain = 0
KAHS 130932Z 25007KT 13/M02 A2995 RMK A01 T01321017  RH  036%=      5-min Rain = 0
KAHS 130933Z 25007KT 13/M02 A2995 RMK A01 T01311018  RH  036%=      5-min Rain = 0
KAHS 130934Z 25006KT 13/M02 A2995 RMK A01 T01301018  RH  036%=      5-min Rain = 0
KAHS 130935Z 26006KT 13/M02 A2995 RMK A01 T01291018  RH  036%=      5-min Rain = 0
KAHS 130936Z 27005KT 13/M02 A2995 RMK A01 T01291018  RH  036%=      5-min Rain = 0
KAHS 130937Z 27006KT 13/M02 A2995 RMK A01 T01271018  RH  036%=      5-min Rain = 0
KAHS 130938Z 27005KT 13/M02 A2995 RMK A01 T01251018  RH  037%=      5-min Rain = 0
KAHS 130939Z 26006KT 12/M02 A2995 RMK A01 T01231017  RH  038%=      5-min Rain = 0
KAHS 130940Z 26006KT 12/M02 A2995 RMK A01 T01211017  RH  038%=      5-min Rain = 0
KAHS 130941Z 26006KT 12/M02 A2995 RMK A01 T01191017  RH  039%=      5-min Rain = 0
KAHS 130942Z 26005KT 12/M02 A2995 RMK A01 T01171017  RH  039%=      5-min Rain = 0
KAHS 130943Z 27005KT 12/M02 A2995 RMK A01 T01161016  RH  040%=      5-min Rain = 0
KAHS 130944Z 26005KT 11/M02 A2995 RMK A01 T01141016  RH  040%=      5-min Rain = 0
KAHS 130945Z 26006KT 11/M02 A2995 RMK A01 T01121016  RH  041%=      5-min Rain = 0
KAHS 130946Z 26006KT 11/M02 A2995 RMK A01 T01111015  RH  041%=      5-min Rain = 0
KAHS 130947Z 26006KT 11/M02 A2995 RMK A01 T01101015  RH  042%=      5-min Rain = 0
KAHS 130948Z 26006KT 11/M02 A2995 RMK A01 T01091015  RH  042%=      5-min Rain = 0
KAHS 130949Z 26006KT 11/M02 A2995 RMK A01 T01081015  RH  042%=      5-min Rain = 0
KAHS 130950Z 26006KT 11/M01 A2995 RMK A01 T01071014  RH  043%=      5-min Rain = 0
KAHS 130951Z 26006KT 11/M01 A2995 RMK A01 T01061014  RH  043%=      5-min Rain = 0
KAHS 130952Z 25006KT 11/M01 A2995 RMK A01 T01051014  RH  043%=      5-min Rain = 0
KAHS 130953Z 25005KT 11/M01 A2995 RMK A01 T01051014  RH  044%=      5-min Rain = 0
KAHS 130954Z 25005KT 10/M01 A2995 RMK A01 T01041014  RH  044%=      5-min Rain = 0
KAHS 130955Z 25005KT 10/M01 A2995 RMK A01 T01031014  RH  044%=      5-min Rain = 0
KAHS 130956Z 26005KT 10/M01 A2995 RMK A01 T01021013  RH  044%=      5-min Rain = 0
KAHS 130957Z 26005KT 10/M01 A2995 RMK A01 T01021013  RH  045%=      5-min Rain = 0
KAHS 130958Z 27005KT 10/M01 A2995 RMK A01 T01011013  RH  045%=      5-min Rain = 0
KAHS 130959Z 27004KT 10/M01 A2995 RMK A01 T01011013  RH  045%=      5-min Rain = 0
KAHS 131000Z 27004KT 10/M01 A2995 RMK A01 T01001013  RH  045%=      5-min Rain = 0
KAHS 131001Z 27004KT 10/M01 A2995 RMK A01 T01001013  RH  045%=      5-min Rain = 0
KAHS 131002Z 27005KT 10/M01 A2995 RMK A01 T01001013  RH  045%=      5-min Rain = 0
KAHS 131003Z 27005KT 10/M01 A2995 RMK A01 T01001013  RH  045%=      5-min Rain = 0
KAHS 131004Z 26005KT 10/M01 A2995 RMK A01 T01011013  RH  045%=      5-min Rain = 0
KAHS 131005Z 26005KT 10/M01 A2995 RMK A01 T01011013  RH  045%=      5-min Rain = 0
KAHS 131006Z 26005KT 10/M01 A2995 RMK A01 T01001013  RH  045%=      5-min Rain = 0
KAHS 131007Z 26005KT 10/M01 A2995 RMK A01 T01001013  RH  045%=      5-min Rain = 0
KAHS 131008Z 26005KT 10/M01 A2995 RMK A01 T01001013  RH  045%=      5-min Rain = 0
KAHS 131009Z 25006KT 10/M01 A2995 RMK A01 T00991013  RH  046%=      5-min Rain = 0
KAHS 131010Z 25006KT 10/M01 A2995 RMK A01 T01001013  RH  046%=      5-min Rain = 0
KAHS 131011Z 25006KT 10/M01 A2995 RMK A01 T00991013  RH  046%=      5-min Rain = 0
KAHS 131012Z 25006KT 10/M01 A2995 RMK A01 T00991013  RH  046%=      5-min Rain = 0
KAHS 131013Z 25005KT 10/M01 A2995 RMK A01 T00991013  RH  046%=      5-min Rain = 0
KAHS 131014Z 25005KT 10/M01 A2995 RMK A01 T01001013  RH  045%=      5-min Rain = 0
KAHS 131015Z 25006KT 10/M01 A2995 RMK A01 T01001013  RH  045%=      5-min Rain = 0
KAHS 131016Z 25005KT 10/M01 A2995 RMK A01 T01001013  RH  045%=      5-min Rain = 0
KAHS 131017Z 26004KT 10/M01 A2995 RMK A01 T01001013  RH  045%=      5-min Rain = 0
KAHS 131018Z 25004KT 10/M01 A2995 RMK A01 T01001013  RH  045%=      5-min Rain = 0
KAHS 131019Z 24003KT 10/M01 A2995 RMK A01 T01001013  RH  045%=      5-min Rain = 0
KAHS 131020Z 24003KT 10/M01 A2995 RMK A01 T01001013  RH  045%=      5-min Rain = 0
KAHS 131021Z 24003KT 10/M01 A2995 RMK A01 T01001013  RH  045%=      5-min Rain = 0
KAHS 131022Z 24004KT 10/M01 A2995 RMK A01 T01001013  RH  045%=      5-min Rain = 0
KAHS 131023Z 24003KT 10/M01 A2995 RMK A01 T01011013  RH  045%=      5-min Rain = 0
KAHS 131024Z 25004KT 10/M01 A2996 RMK A01 T01011013  RH  045%=      5-min Rain = 0
KAHS 131025Z 25003KT 10/M01 A2996 RMK A01 T01011013  RH  045%=      5-min Rain = 0
KAHS 131026Z 27003KT 10/M01 A2996 RMK A01 T01011014  RH  045%=      5-min Rain = 0
KAHS 131027Z 28002KT 10/M01 A2996 RMK A01 T01011013  RH  045%=      5-min Rain = 0
KAHS 131028Z 29002KT 10/M01 A2996 RMK A01 T01011013  RH  045%=      5-min Rain = 0
KAHS 131029Z 29002KT 10/M01 A2996 RMK A01 T01001013  RH  045%=      5-min Rain = 0
KAHS 131030Z 31002KT 10/M01 A2996 RMK A01 T01001013  RH  045%=      5-min Rain = 0
KAHS 131031Z 31002KT 10/M01 A2996 RMK A01 T00991013  RH  046%=      5-min Rain = 0
KAHS 131032Z 31002KT 10/M01 A2996 RMK A01 T00981013  RH  046%=      5-min Rain = 0
KAHS 131033Z 31003KT 10/M01 A2996 RMK A01 T00971013  RH  046%=      5-min Rain = 0
KAHS 131034Z 31003KT 10/M01 A2996 RMK A01 T00961013  RH  046%=      5-min Rain = 0
KAHS 131035Z 31003KT 10/M01 A2996 RMK A01 T00961013  RH  047%=      5-min Rain = 0
KAHS 131036Z 29003KT 10/M01 A2996 RMK A01 T00951013  RH  047%=      5-min Rain = 0
KAHS 131037Z 29003KT 10/M01 A2996 RMK A01 T00951012  RH  047%=      5-min Rain = 0
KAHS 131038Z 28003KT 09/M01 A2996 RMK A01 T00941012  RH  047%=      5-min Rain = 0
KAHS 131039Z 28003KT 09/M01 A2996 RMK A01 T00941012  RH  047%=      5-min Rain = 0
KAHS 131040Z 27004KT 09/M01 A2996 RMK A01 T00941012  RH  048%=      5-min Rain = 0
KAHS 131041Z 27004KT 09/M01 A2996 RMK A01 T00941012  RH  048%=      5-min Rain = 0
KAHS 131042Z 27004KT 09/M01 A2996 RMK A01 T00941012  RH  048%=      5-min Rain = 0
KAHS 131043Z 27004KT 09/M01 A2996 RMK A01 T00931012  RH  048%=      5-min Rain = 0
KAHS 131044Z 26005KT 09/M01 A2996 RMK A01 T00931012  RH  048%=      5-min Rain = 0
KAHS 131045Z 26004KT 09/M01 A2996 RMK A01 T00931012  RH  048%=      5-min Rain = 0
KAHS 131046Z 26004KT 09/M01 A2996 RMK A01 T00921012  RH  048%=      5-min Rain = 0
KAHS 131047Z 26004KT 09/M01 A2996 RMK A01 T00911013  RH  048%=      5-min Rain = 0
KAHS 131048Z 26004KT 09/M01 A2996 RMK A01 T00901013  RH  048%=      5-min Rain = 0
KAHS 131049Z 27004KT 09/M01 A2996 RMK A01 T00901012  RH  049%=      5-min Rain = 0
KAHS 131050Z 28003KT 09/M01 A2996 RMK A01 T00901012  RH  049%=      5-min Rain = 0
KAHS 131051Z 29004KT 09/M01 A2996 RMK A01 T00891012  RH  049%=      5-min Rain = 0
KAHS 131052Z 29004KT 09/M01 A2996 RMK A01 T00881012  RH  050%=      5-min Rain = 0
KAHS 131053Z 30004KT 09/M01 A2996 RMK A01 T00871012  RH  050%=      5-min Rain = 0
KAHS 131054Z 30004KT 09/M01 A2996 RMK A01 T00871011  RH  050%=      5-min Rain = 0
KAHS 131055Z 31004KT 09/M01 A2996 RMK A01 T00871012  RH  050%=      5-min Rain = 0
KAHS 131056Z 31004KT 09/M01 A2996 RMK A01 T00881012  RH  050%=      5-min Rain = 0
KAHS 131057Z 31004KT 09/M01 A2996 RMK A01 T00881012  RH  049%=      5-min Rain = 0
KAHS 131058Z 31003KT 09/M01 A2996 RMK A01 T00891012  RH  049%=      5-min Rain = 0
KAHS 131059Z 31003KT 09/M01 A2996 RMK A01 T00901012  RH  049%=      5-min Rain = 0
KAHS 131100Z 31003KT 09/M01 A2996 RMK A01 T00911013  RH  048%=      5-min Rain = 0
KAHS 131101Z 30003KT 09/M01 A2996 RMK A01 T00921013  RH  048%=      5-min Rain = 0
KAHS 131102Z 29004KT 09/M01 A2996 RMK A01 T00931013  RH  048%=      5-min Rain = 0
KAHS 131103Z 28004KT 09/M01 A2996 RMK A01 T00941013  RH  047%=      5-min Rain = 0
KAHS 131104Z 28004KT 10/M01 A2996 RMK A01 T00951013  RH  047%=      5-min Rain = 0
KAHS 131105Z 28004KT 10/M01 A2996 RMK A01 T00951013  RH  047%=      5-min Rain = 0
KAHS 131106Z 28004KT 10/M01 A2996 RMK A01 T00961013  RH  047%=      5-min Rain = 0
KAHS 131107Z 28004KT 10/M01 A2996 RMK A01 T00961013  RH  047%=      5-min Rain = 0
KAHS 131108Z 28004KT 10/M01 A2996 RMK A01 T00961012  RH  047%=      5-min Rain = 0
KAHS 131109Z 28004KT 10/M01 A2996 RMK A01 T00951012  RH  047%=      5-min Rain = 0
KAHS 131110Z 28004KT 09/M01 A2996 RMK A01 T00941012  RH  047%=      5-min Rain = 0
KAHS 131111Z 28004KT 09/M01 A2996 RMK A01 T00941012  RH  048%=      5-min Rain = 0
KAHS 131112Z 27004KT 09/M01 A2996 RMK A01 T00931012  RH  048%=      5-min Rain = 0
KAHS 131113Z 27003KT 09/M01 A2996 RMK A01 T00931012  RH  048%=      5-min Rain = 0
KAHS 131114Z 27004KT 09/M01 A2996 RMK A01 T00921012  RH  048%=      5-min Rain = 0
KAHS 131115Z 27004KT 09/M01 A2996 RMK A01 T00921012  RH  048%=      5-min Rain = 0
KAHS 131116Z 27004KT 09/M01 A2996 RMK A01 T00921012  RH  048%=      5-min Rain = 0
KAHS 131117Z 27004KT 09/M01 A2996 RMK A01 T00921011  RH  048%=      5-min Rain = 0
KAHS 131118Z 27004KT 09/M01 A2996 RMK A01 T00921011  RH  048%=      5-min Rain = 0
KAHS 131119Z 27004KT 09/M01 A2996 RMK A01 T00921012  RH  048%=      5-min Rain = 0
KAHS 131120Z 27004KT 09/M01 A2996 RMK A01 T00921012  RH  048%=      5-min Rain = 0
KAHS 131121Z 27004KT 09/M01 A2996 RMK A01 T00921011  RH  048%=      5-min Rain = 0
KAHS 131122Z 27004KT 09/M01 A2996 RMK A01 T00921012  RH  048%=      5-min Rain = 0
KAHS 131123Z 27004KT 09/M01 A2996 RMK A01 T00921012  RH  048%=      5-min Rain = 0
KAHS 131124Z 27004KT 09/M01 A2996 RMK A01 T00911012  RH  048%=      5-min Rain = 0
KAHS 131125Z 27004KT 09/M01 A2996 RMK A01 T00911012  RH  049%=      5-min Rain = 0
KAHS 131126Z 27004KT 09/M01 A2996 RMK A01 T00901012  RH  049%=      5-min Rain = 0
KAHS 131127Z 28004KT 09/M01 A2996 RMK A01 T00891012  RH  049%=      5-min Rain = 0
KAHS 131128Z 28004KT 09/M01 A2996 RMK A01 T00891011  RH  049%=      5-min Rain = 0
KAHS 131129Z 28004KT 09/M01 A2996 RMK A01 T00891011  RH  049%=      5-min Rain = 0
KAHS 131130Z 29004KT 09/M01 A2996 RMK A01 T00881012  RH  049%=      5-min Rain = 0
KAHS 131131Z 29003KT 09/M01 A2996 RMK A01 T00881012  RH  049%=      5-min Rain = 0
KAHS 131132Z 29003KT 09/M01 A2996 RMK A01 T00891012  RH  049%=      5-min Rain = 0
KAHS 131133Z 28003KT 09/M01 A2996 RMK A01 T00891012  RH  049%=      5-min Rain = 0
KAHS 131134Z 28003KT 09/M01 A2996 RMK A01 T00891012  RH  049%=      5-min Rain = 0
KAHS 131135Z 28003KT 09/M01 A2996 RMK A01 T00901012  RH  049%=      5-min Rain = 0
KAHS 131136Z 28003KT 09/M01 A2997 RMK A01 T00901012  RH  049%=      5-min Rain = 0
KAHS 131137Z 29003KT 09/M01 A2997 RMK A01 T00901012  RH  049%=      5-min Rain = 0
KAHS 131138Z 29003KT 09/M01 A2997 RMK A01 T00901012  RH  049%=      5-min Rain = 0
KAHS 131139Z 30003KT 09/M01 A2997 RMK A01 T00901012  RH  049%=      5-min Rain = 0
KAHS 131140Z 31003KT 09/M01 A2997 RMK A01 T00901012  RH  049%=      5-min Rain = 0
KAHS 131141Z 32003KT 09/M01 A2997 RMK A01 T00901012  RH  049%=      5-min Rain = 0
KAHS 131142Z 32003KT 09/M01 A2997 RMK A01 T00891012  RH  049%=      5-min Rain = 0
KAHS 131143Z 33002KT 09/M01 A2997 RMK A01 T00881011  RH  050%=      5-min Rain = 0
KAHS 131144Z 33002KT 09/M01 A2997 RMK A01 T00871012  RH  050%=      5-min Rain = 0
KAHS 131145Z 32002KT 09/M01 A2997 RMK A01 T00851012  RH  051%=      5-min Rain = 0
KAHS 131146Z 30002KT 08/M01 A2997 RMK A01 T00841012  RH  051%=      5-min Rain = 0
KAHS 131147Z 28001KT 08/M01 A2997 RMK A01 T00841012  RH  051%=      5-min Rain = 0
KAHS 131148Z 26001KT 08/M01 A2997 RMK A01 T00841012  RH  051%=      5-min Rain = 0
KAHS 131149Z 24001KT 08/M01 A2997 RMK A01 T00841012  RH  051%=      5-min Rain = 0
KAHS 131150Z 24002KT 08/M01 A2997 RMK A01 T00841012  RH  051%=      5-min Rain = 0
KAHS 131151Z 24002KT 08/M01 A2997 RMK A01 T00841012  RH  051%=      5-min Rain = 0
KAHS 131152Z 24002KT 08/M01 A2997 RMK A01 T00841012  RH  051%=      5-min Rain = 0
KAHS 131153Z 25002KT 09/M01 A2997 RMK A01 T00851012  RH  050%=      5-min Rain = 0
KAHS 131154Z 26001KT 09/M01 A2997 RMK A01 T00871012  RH  050%=      5-min Rain = 0
KAHS 131155Z 26001KT 09/M01 A2997 RMK A01 T00881012  RH  049%=      5-min Rain = 0
KAHS 131156Z 27001KT 09/M01 A2997 RMK A01 T00891012  RH  049%=      5-min Rain = 0
KAHS 131157Z 27001KT 09/M01 A2997 RMK A01 T00891012  RH  049%=      5-min Rain = 0
KAHS 131158Z 28002KT 09/M01 A2997 RMK A01 T00891012  RH  049%=      5-min Rain = 0
KAHS 131159Z 27002KT 09/M01 A2997 RMK A01 T00901012  RH  049%=      5-min Rain = 0
KAHS 131200Z 26002KT 09/M01 A2997 RMK A01 T00911012  RH  048%=      5-min Rain = 0
KAHS 131201Z 26002KT 09/M01 A2997 RMK A01 T00901013  RH  048%=      5-min Rain = 0
KAHS 131202Z 25002KT 09/M01 A2997 RMK A01 T00901012  RH  049%=      5-min Rain = 0
KAHS 131203Z 25002KT 09/M01 A2997 RMK A01 T00901012  RH  049%=      5-min Rain = 0
KAHS 131204Z 25002KT 09/M01 A2997 RMK A01 T00901012  RH  049%=      5-min Rain = 0
KAHS 131205Z 26002KT 09/M01 A2997 RMK A01 T00901012  RH  049%=      5-min Rain = 0
KAHS 131206Z 27002KT 09/M01 A2998 RMK A01 T00861012  RH  050%=      5-min Rain = 0
KAHS 131207Z 28002KT 08/M01 A2998 RMK A01 T00821012  RH  052%=      5-min Rain = 0
KAHS 131208Z 28001KT 08/M01 A2998 RMK A01 T00811011  RH  052%=      5-min Rain = 0
KAHS 131209Z 28001KT 08/M01 A2998 RMK A01 T00811011  RH  052%=      5-min Rain = 0
KAHS 131210Z 28001KT 08/M01 A2998 RMK A01 T00801012  RH  052%=      5-min Rain = 0
KAHS 131211Z 28001KT 08/M01 A2998 RMK A01 T00781011  RH  053%=      5-min Rain = 0
KAHS 131212Z 28001KT 08/M01 A2998 RMK A01 T00771011  RH  054%=      5-min Rain = 0
KAHS 131213Z 28001KT 08/M01 A2998 RMK A01 T00781011  RH  054%=      5-min Rain = 0
KAHS 131214Z 28001KT 08/M01 A2998 RMK A01 T00801011  RH  053%=      5-min Rain = 0
KAHS 131215Z 28001KT 08/M01 A2998 RMK A01 T00821012  RH  052%=      5-min Rain = 0
KAHS 131216Z 26001KT 08/M01 A2998 RMK A01 T00841012  RH  051%=      5-min Rain = 0
KAHS 131217Z 26002KT 09/M01 A2998 RMK A01 T00851012  RH  050%=      5-min Rain = 0
KAHS 131218Z 26002KT 09/M01 A2998 RMK A01 T00851013  RH  050%=      5-min Rain = 0
KAHS 131219Z 26002KT 09/M01 A2998 RMK A01 T00871012  RH  050%=      5-min Rain = 0
KAHS 131220Z 26002KT 09/M01 A2998 RMK A01 T00881012  RH  049%=      5-min Rain = 0
KAHS 131221Z 25002KT 09/M01 A2998 RMK A01 T00891012  RH  049%=      5-min Rain = 0
KAHS 131222Z 24002KT 09/M01 A2998 RMK A01 T00901012  RH  049%=      5-min Rain = 0
KAHS 131223Z 25002KT 09/M01 A2998 RMK A01 T00921012  RH  048%=      5-min Rain = 0
KAHS 131224Z 25002KT 09/M01 A2998 RMK A01 T00931012  RH  048%=      5-min Rain = 0
KAHS 131225Z 24003KT 09/M01 A2998 RMK A01 T00941013  RH  047%=      5-min Rain = 0
KAHS 131226Z 23003KT 09/M01 A2998 RMK A01 T00941012  RH  047%=      5-min Rain = 0
KAHS 131227Z 24003KT 09/M01 A2998 RMK A01 T00941013  RH  047%=      5-min Rain = 0
KAHS 131228Z 23004KT 09/M01 A2998 RMK A01 T00921013  RH  048%=      5-min Rain = 0
KAHS 131229Z 23004KT 09/M01 A2998 RMK A01 T00901013  RH  048%=      5-min Rain = 0
KAHS 131230Z 23005KT 09/M01 A2998 RMK A01 T00881012  RH  049%=      5-min Rain = 0
KAHS 131231Z 23005KT 09/M01 A2998 RMK A01 T00861012  RH  050%=      5-min Rain = 0
KAHS 131232Z 23005KT 08/M01 A2998 RMK A01 T00841012  RH  051%=      5-min Rain = 0
KAHS 131233Z 23005KT 08/M01 A2998 RMK A01 T00821012  RH  052%=      5-min Rain = 0
KAHS 131234Z 23005KT 08/M01 A2998 RMK A01 T00801012  RH  052%=      5-min Rain = 0
KAHS 131235Z 23005KT 08/M01 A2998 RMK A01 T00791011  RH  053%=      5-min Rain = 0
KAHS 131236Z 23004KT 08/M01 A2998 RMK A01 T00791011  RH  053%=      5-min Rain = 0
KAHS 131237Z 23004KT 08/M01 A2998 RMK A01 T00791011  RH  053%=      5-min Rain = 0
KAHS 131238Z 24004KT 08/M01 A2998 RMK A01 T00791011  RH  053%=      5-min Rain = 0
KAHS 131239Z 23004KT 08/M01 A2998 RMK A01 T00801011  RH  053%=      5-min Rain = 0
KAHS 131240Z 23004KT 08/M01 A2998 RMK A01 T00801011  RH  052%=      5-min Rain = 0
KAHS 131241Z 23003KT 08/M01 A2998 RMK A01 T00811011  RH  052%=      5-min Rain = 0
KAHS 131242Z 24003KT 08/M01 A2998 RMK A01 T00811012  RH  052%=      5-min Rain = 0
KAHS 131243Z 24003KT 08/M01 A2998 RMK A01 T00811012  RH  052%=      5-min Rain = 0
KAHS 131244Z 25002KT 08/M01 A2998 RMK A01 T00811011  RH  052%=      5-min Rain = 0
KAHS 131245Z 24002KT 08/M01 A2998 RMK A01 T00811011  RH  052%=      5-min Rain = 0
KAHS 131246Z 23002KT 08/M01 A2998 RMK A01 T00811012  RH  052%=      5-min Rain = 0
KAHS 131247Z 23002KT 08/M01 A2998 RMK A01 T00811011  RH  052%=      5-min Rain = 0
KAHS 131248Z 23002KT 08/M01 A2998 RMK A01 T00811011  RH  052%=      5-min Rain = 0
KAHS 131249Z 23003KT 08/M01 A2998 RMK A01 T00821011  RH  052%=      5-min Rain = 0
KAHS 131250Z 22003KT 08/M01 A2998 RMK A01 T00841011  RH  051%=      5-min Rain = 0
KAHS 131251Z 22003KT 09/M01 A2998 RMK A01 T00851011  RH  051%=      5-min Rain = 0
KAHS 131252Z 23003KT 09/M01 A2998 RMK A01 T00851012  RH  051%=      5-min Rain = 0
KAHS 131253Z 24003KT 09/M01 A2998 RMK A01 T00861012  RH  050%=      5-min Rain = 0
KAHS 131254Z 24003KT 09/M01 A2998 RMK A01 T00861012  RH  050%=      5-min Rain = 0
KAHS 131255Z 24003KT 09/M01 A2998 RMK A01 T00861012  RH  050%=      5-min Rain = 0
KAHS 131256Z 25002KT 09/M01 A2998 RMK A01 T00861012  RH  050%=      5-min Rain = 0
KAHS 131257Z 24003KT 09/M01 A2998 RMK A01 T00861011  RH  050%=      5-min Rain = 0
KAHS 131258Z 25002KT 09/M01 A2998 RMK A01 T00861011  RH  050%=      5-min Rain = 0
KAHS 131259Z 26002KT 09/M01 A2998 RMK A01 T00861011  RH  050%=      5-min Rain = 0
KAHS 131300Z 28002KT 09/M01 A2998 RMK A01 T00861011  RH  050%=      5-min Rain = 0
KAHS 131301Z 27002KT 09/M01 A2998 RMK A01 T00861010  RH  051%=      5-min Rain = 0
KAHS 131302Z 28003KT 09/M01 A2998 RMK A01 T00861011  RH  051%=      5-min Rain = 0
KAHS 131303Z 28003KT 09/M01 A2998 RMK A01 T00861011  RH  050%=      5-min Rain = 0
KAHS 131304Z 27003KT 09/M01 A2998 RMK A01 T00871011  RH  050%=      5-min Rain = 0
KAHS 131305Z 26003KT 09/M01 A2998 RMK A01 T00871010  RH  050%=      5-min Rain = 0
KAHS 131306Z 25004KT 09/M01 A2998 RMK A01 T00871010  RH  050%=      5-min Rain = 0
KAHS 131307Z 24003KT 09/M01 A2998 RMK A01 T00871010  RH  050%=      5-min Rain = 0
KAHS 131308Z 23003KT 09/M01 A2998 RMK A01 T00881010  RH  050%=      5-min Rain = 0
KAHS 131309Z 22002KT 09/M01 A2998 RMK A01 T00881010  RH  050%=      5-min Rain = 0
KAHS 131310Z 22002KT 09/M01 A2998 RMK A01 T00891010  RH  050%=      5-min Rain = 0
KAHS 131311Z 21001KT 09/M01 A2998 RMK A01 T00901009  RH  050%=      5-min Rain = 0
KAHS 131312Z 19002KT 09/M01 A2998 RMK A01 T00911009  RH  049%=      5-min Rain = 0
KAHS 131313Z 19002KT 09/M01 A2998 RMK A01 T00921009  RH  049%=      5-min Rain = 0
KAHS 131314Z 19003KT 09/M01 A2998 RMK A01 T00931009  RH  049%=      5-min Rain = 0
KAHS 131315Z 18002KT 09/M01 A2998 RMK A01 T00931009  RH  049%=      5-min Rain = 0
KAHS 131316Z 16002KT 09/M01 A2998 RMK A01 T00941009  RH  049%=      5-min Rain = 0
KAHS 131317Z 17001KT 09/M01 A2997 RMK A01 T00941009  RH  048%=      5-min Rain = 0
KAHS 131318Z 14001KT 10/M01 A2997 RMK A01 T00951008  RH  049%=      5-min Rain = 0
KAHS 131319Z 15001KT 10/M01 A2997 RMK A01 T00971007  RH  048%=      5-min Rain = 0
KAHS 131320Z 18000KT 10/M01 A2997 RMK A01 T00981008  RH  048%=      5-min Rain = 0
KAHS 131321Z 11000KT 10/M01 A2997 RMK A01 T00991007  RH  048%=      5-min Rain = 0
KAHS 131322Z 19000KT 10/M01 A2998 RMK A01 T01001007  RH  047%=      5-min Rain = 0
KAHS 131323Z 09001KT 10/M01 A2998 RMK A01 T01001008  RH  047%=      5-min Rain = 0
KAHS 131324Z 29001KT 10/M01 A2998 RMK A01 T01011006  RH  047%=      5-min Rain = 0
KAHS 131325Z 34001KT 10/M01 A2998 RMK A01 T01011007  RH  047%=      5-min Rain = 0
KAHS 131326Z 34001KT 10/M01 A2998 RMK A01 T01021007  RH  047%=      5-min Rain = 0
KAHS 131327Z 01001KT 10/M01 A2998 RMK A01 T01021008  RH  047%=      5-min Rain = 0
KAHS 131328Z 00001KT 10/M01 A2998 RMK A01 T01031007  RH  046%=      5-min Rain = 0
KAHS 131329Z 01000KT 10/M01 A2998 RMK A01 T01031006  RH  047%=      5-min Rain = 0
KAHS 131330Z 18001KT 11/M01 A2998 RMK A01 T01051007  RH  046%=      5-min Rain = 0
KAHS 131331Z 16001KT 10/M01 A2998 RMK A01 T01041009  RH  045%=      5-min Rain = 0
KAHS 131332Z 15002KT 11/M01 A2998 RMK A01 T01051007  RH  046%=      5-min Rain = 0
KAHS 131333Z 15002KT 11/M01 A2998 RMK A01 T01061006  RH  046%=      5-min Rain = 0
KAHS 131334Z 16001KT 11/M00 A2998 RMK A01 T01081004  RH  046%=      5-min Rain = 0
KAHS 131335Z 15000KT 11/M00 A2998 RMK A01 T01101004  RH  045%=      5-min Rain = 0
KAHS 131336Z 15000KT 11/M01 A2998 RMK A01 T01101006  RH  045%=      5-min Rain = 0
KAHS 131337Z 15001KT 11/M00 A2998 RMK A01 T01111004  RH  045%=      5-min Rain = 0
KAHS 131338Z 14001KT 11/M00 A2998 RMK A01 T01111004  RH  045%=      5-min Rain = 0
KAHS 131339Z 14001KT 11/M00 A2998 RMK A01 T01121004  RH  045%=      5-min Rain = 0
KAHS 131340Z 13002KT 11/M00 A2998 RMK A01 T01121003  RH  045%=      5-min Rain = 0
KAHS 131341Z 13001KT 11/M00 A2998 RMK A01 T01121002  RH  045%=      5-min Rain = 0
KAHS 131342Z 06001KT 11/M00 A2998 RMK A01 T01121001  RH  046%=      5-min Rain = 0
KAHS 131343Z 07001KT 11/00 A2998 RMK A01 T01130001  RH  046%=      5-min Rain = 0
KAHS 131344Z 08002KT 11/00 A2998 RMK A01 T01130001  RH  046%=      5-min Rain = 0
KAHS 131345Z 08001KT 11/00 A2999 RMK A01 T01140002  RH  046%=      5-min Rain = 0
KAHS 131346Z 10002KT 11/00 A2999 RMK A01 T01140003  RH  046%=      5-min Rain = 0
KAHS 131347Z 13002KT 11/01 A2999 RMK A01 T01140005  RH  047%=      5-min Rain = 0
KAHS 131348Z 15002KT 12/01 A2999 RMK A01 T01150006  RH  047%=      5-min Rain = 0
KAHS 131349Z 16000KT 12/01 A2999 RMK A01 T01160007  RH  047%=      5-min Rain = 0
KAHS 131350Z 17000KT 12/01 A2999 RMK A01 T01160007  RH  047%=      5-min Rain = 0
KAHS 131351Z 15001KT 12/01 A2999 RMK A01 T01170009  RH  047%=      5-min Rain = 0
KAHS 131352Z 10001KT 12/01 A2999 RMK A01 T01180008  RH  047%=      5-min Rain = 0
KAHS 131353Z 11001KT 12/01 A2999 RMK A01 T01190007  RH  046%=      5-min Rain = 0
KAHS 131354Z 13001KT 12/01 A30 RMK A01 T01200007  RH  046%=      5-min Rain = 0
KAHS 131355Z 15001KT 12/01 A30 RMK A01 T01200006  RH  046%=      5-min Rain = 0
KAHS 131356Z 17000KT 12/01 A30 RMK A01 T01220008  RH  046%=      5-min Rain = 0
KAHS 131357Z 29000KT 12/01 A30 RMK A01 T01220007  RH  045%=      5-min Rain = 0
KAHS 131358Z 00000KT 12/01 A30 RMK A01 T01230007  RH  045%=      5-min Rain = 0
KAHS 131359Z 19000KT 12/01 A30 RMK A01 T01240006  RH  044%=      5-min Rain = 0
KAHS 131400Z 20001KT 13/01 A2999 RMK A01 T01250006  RH  044%=      5-min Rain = 0
KAHS 131401Z 22001KT 12/00 A2999 RMK A01 T01240004  RH  044%=      5-min Rain = 0
KAHS 131402Z 20001KT 13/01 A2999 RMK A01 T01250006  RH  044%=      5-min Rain = 0
KAHS 131403Z 20002KT 13/01 A2999 RMK A01 T01270007  RH  044%=      5-min Rain = 0
KAHS 131404Z 19002KT 13/01 A2999 RMK A01 T01270005  RH  043%=      5-min Rain = 0
KAHS 131405Z 20002KT 13/01 A30 RMK A01 T01280006  RH  043%=      5-min Rain = 0
KAHS 131406Z 20002KT 13/01 A2999 RMK A01 T01290006  RH  043%=      5-min Rain = 0
KAHS 131407Z 21002KT 13/01 A2999 RMK A01 T01300007  RH  043%=      5-min Rain = 0
KAHS 131408Z 25002KT 13/01 A30 RMK A01 T01310007  RH  043%=      5-min Rain = 0
KAHS 131409Z 24002KT 13/01 A30 RMK A01 T01310005  RH  042%=      5-min Rain = 0
KAHS 131410Z 22002KT 13/01 A30 RMK A01 T01310007  RH  042%=      5-min Rain = 0
KAHS 131411Z 20002KT 13/01 A30 RMK A01 T01330007  RH  042%=      5-min Rain = 0
KAHS 131412Z 20002KT 13/01 A30 RMK A01 T01340007  RH  042%=      5-min Rain = 0
KAHS 131413Z 21004KT 14/01 A30 RMK A01 T01360008  RH  042%=      5-min Rain = 0
KAHS 131414Z 22005KT 14/01 A30 RMK A01 T01370005  RH  040%=      5-min Rain = 0
KAHS 131415Z 21004KT 14/01 A30 RMK A01 T01380005  RH  040%=      5-min Rain = 0
KAHS 131416Z 19003KT 14/00 A30 RMK A01 T01390003  RH  039%=      5-min Rain = 0
KAHS 131417Z 21003KT 14/00 A30 RMK A01 T01410003  RH  039%=      5-min Rain = 0
KAHS 131418Z 21005KT 14/00 A30 RMK A01 T01410002  RH  039%=      5-min Rain = 0
KAHS 131419Z 21004KT 14/00 A30 RMK A01 T014100-0  RH  038%=      5-min Rain = 0
KAHS 131420Z 21004KT 14/00 A30 RMK A01 T01410000  RH  038%=      5-min Rain = 0
KAHS 131421Z 21004KT 14/00 A30 RMK A01 T01420001  RH  038%=      5-min Rain = 0
KAHS 131422Z 23005KT 14/00 A30 RMK A01 T01440002  RH  038%=      5-min Rain = 0
KAHS 131423Z 21005KT 15/00 A30 RMK A01 T01450000  RH  037%=      5-min Rain = 0
KAHS 131424Z 21005KT 15/M00 A30 RMK A01 T01451001  RH  037%=      5-min Rain = 0
KAHS 131425Z 21005KT 15/M00 A30 RMK A01 T01451001  RH  037%=      5-min Rain = 0
KAHS 131426Z 22004KT 15/00 A30 RMK A01 T01460001  RH  037%=      5-min Rain = 0
KAHS 131427Z 25006KT 15/00 A30 RMK A01 T01480001  RH  037%=      5-min Rain = 0
KAHS 131428Z 24006KT 15/M00 A30 RMK A01 T01481001  RH  036%=      5-min Rain = 0
KAHS 131429Z 24007KT 15/M00 A3001 RMK A01 T01491001  RH  036%=      5-min Rain = 0
KAHS 131430Z 22006KT 15/M00 A3001 RMK A01 T01491002  RH  035%=      5-min Rain = 0
KAHS 131431Z 23007KT 15/M00 A3001 RMK A01 T01491002  RH  036%=      5-min Rain = 0
KAHS 131432Z 24006KT 15/M00 A3001 RMK A01 T01491001  RH  036%=      5-min Rain = 0
KAHS 131433Z 24007KT 15/M00 A3001 RMK A01 T01501001  RH  036%=      5-min Rain = 0
KAHS 131434Z 24005KT 15/00 A3001 RMK A01 T015000-0  RH  036%=      5-min Rain = 0
KAHS 131435Z 24007KT 15/00 A3001 RMK A01 T01520001  RH  036%=      5-min Rain = 0
KAHS 131436Z 23008KT 15/M00 A3001 RMK A01 T01521001  RH  035%=      5-min Rain = 0
KAHS 131437Z 23007KT 15/00 A3001 RMK A01 T01510000  RH  036%=      5-min Rain = 0
KAHS 131438Z 23006KT 15/00 A3001 RMK A01 T01530002  RH  036%=      5-min Rain = 0
KAHS 131439Z 23008KT 16/00 A3001 RMK A01 T01550003  RH  035%=      5-min Rain = 0
KAHS 131440Z 23007KT 15/00 A3001 RMK A01 T01530000  RH  035%=      5-min Rain = 0
KAHS 131441Z 23008KT 15/00 A3001 RMK A01 T01530002  RH  036%=      5-min Rain = 0
KAHS 131442Z 24007KT 15/00 A3001 RMK A01 T01530002  RH  036%=      5-min Rain = 0
KAHS 131443Z 24007KT 15/00 A3001 RMK A01 T01540003  RH  036%=      5-min Rain = 0
KAHS 131444Z 23007KT 16/00 A3001 RMK A01 T01550003  RH  036%=      5-min Rain = 0
KAHS 131445Z 24009KT 16/00 A3001 RMK A01 T01560001  RH  035%=      5-min Rain = 0
KAHS 131446Z 25008KT 16/00 A3001 RMK A01 T015500-0  RH  035%=      5-min Rain = 0
KAHS 131447Z 25008KT 16/00 A30 RMK A01 T01560001  RH  035%=      5-min Rain = 0
KAHS 131448Z 25009KT 16/M00 A30 RMK A01 T01551001  RH  034%=      5-min Rain = 0
KAHS 131449Z 24008KT 16/M00 A30 RMK A01 T01551001  RH  034%=      5-min Rain = 0
KAHS 131450Z 25006KT 16/00 A30 RMK A01 T01570002  RH  035%=      5-min Rain = 0
KAHS 131451Z 24008KT 16/00 A30 RMK A01 T01590002  RH  034%=      5-min Rain = 0
KAHS 131452Z 24007KT 16/00 A30 RMK A01 T01600002  RH  034%=      5-min Rain = 0
KAHS 131453Z 22010KT 16/00 A30 RMK A01 T01610001  RH  034%=      5-min Rain = 0
KAHS 131454Z 23009KT 16/00 A30 RMK A01 T01600000  RH  034%=      5-min Rain = 0
KAHS 131455Z 23007KT 16/00 A30 RMK A01 T01600001  RH  034%=      5-min Rain = 0
KAHS 131456Z 23008KT 16/00 A30 RMK A01 T01610001  RH  034%=      5-min Rain = 0
KAHS 131457Z 22010KT 16/M00 A30 RMK A01 T01591001  RH  034%=      5-min Rain = 0
KAHS 131458Z 22009KT 16/00 A30 RMK A01 T01580000  RH  034%=      5-min Rain = 0
KAHS 131459Z 23009KT 16/00 A30 RMK A01 T01590001  RH  034%=      5-min Rain = 0
KAHS 131500Z 24008KT 16/00 A30 RMK A01 T01600001  RH  034%=      5-min Rain = 0
KAHS 131501Z 23007KT 16/00 A30 RMK A01 T01610002  RH  034%=      5-min Rain = 0
KAHS 131502Z 23009KT 16/00 A30 RMK A01 T01620002  RH  034%=      5-min Rain = 0
KAHS 131503Z 23008KT 16/00 A30 RMK A01 T01630002  RH  034%=      5-min Rain = 0
KAHS 131504Z 23009KT 16/00 A30 RMK A01 T01630002  RH  033%=      5-min Rain = 0
KAHS 131505Z 23009KT 16/00 A30 RMK A01 T01630001  RH  033%=      5-min Rain = 0
KAHS 131506Z 24009KT 16/00 A30 RMK A01 T01630002  RH  034%=      5-min Rain = 0
KAHS 131507Z 24008KT 16/00 A30 RMK A01 T01640003  RH  033%=      5-min Rain = 0
KAHS 131508Z 24008KT 17/00 A30 RMK A01 T01660003  RH  033%=      5-min Rain = 0
KAHS 131509Z 24008KT 17/00 A30 RMK A01 T01660004  RH  033%=      5-min Rain = 0
KAHS 131510Z 23008KT 17/00 A30 RMK A01 T01670004  RH  033%=      5-min Rain = 0
KAHS 131511Z 24009KT 17/01 A30 RMK A01 T01680005  RH  033%=      5-min Rain = 0
KAHS 131512Z 23008KT 17/01 A30 RMK A01 T01690006  RH  033%=      5-min Rain = 0
KAHS 131513Z 24007KT 17/01 A30 RMK A01 T01700006  RH  033%=      5-min Rain = 0
KAHS 131514Z 22009KT 17/01 A30 RMK A01 T01710007  RH  033%=      5-min Rain = 0
KAHS 131515Z 22006KT 17/01 A30 RMK A01 T01700009  RH  034%=      5-min Rain = 0
KAHS 131516Z 22008KT 17/01 A30 RMK A01 T01710010  RH  034%=      5-min Rain = 0
KAHS 131517Z 23008KT 17/01 A30 RMK A01 T01740010  RH  033%=      5-min Rain = 0
KAHS 131518Z 22011KT 17/01 A30 RMK A01 T01740007  RH  032%=      5-min Rain = 0
KAHS 131519Z 23009KT 17/01 A30 RMK A01 T01720005  RH  032%=      5-min Rain = 0
KAHS 131520Z 22006KT 17/01 A30 RMK A01 T01720007  RH  033%=      5-min Rain = 0
KAHS 131521Z 23009KT 17/01 A30 RMK A01 T01730007  RH  032%=      5-min Rain = 0
KAHS 131522Z 23009KT 17/01 A30 RMK A01 T01730007  RH  032%=      5-min Rain = 0
KAHS 131523Z 24008KT 17/01 A30 RMK A01 T01720006  RH  032%=      5-min Rain = 0
KAHS 131524Z 23007KT 17/01 A30 RMK A01 T01740008  RH  033%=      5-min Rain = 0
KAHS 131525Z 24010KT 18/01 A30 RMK A01 T01770007  RH  032%=      5-min Rain = 0
KAHS 131526Z 22010KT 17/01 A30 RMK A01 T01740005  RH  032%=      5-min Rain = 0
KAHS 131527Z 22010KT 17/01 A30 RMK A01 T01720005  RH  032%=      5-min Rain = 0
KAHS 131528Z 22009KT 17/01 A30 RMK A01 T01730006  RH  032%=      5-min Rain = 0
KAHS 131529Z 22007KT 17/01 A30 RMK A01 T01730007  RH  032%=      5-min Rain = 0
KAHS 131530Z 21009KT 18/01 A30 RMK A01 T01750009  RH  033%=      5-min Rain = 0
KAHS 131531Z 21008KT 18/01 A30 RMK A01 T01750008  RH  032%=      5-min Rain = 0
KAHS 131532Z 22008KT 18/01 A30 RMK A01 T01760009  RH  032%=      5-min Rain = 0
KAHS 131533Z 21007KT 18/01 A30 RMK A01 T01780009  RH  032%=      5-min Rain = 0
KAHS 131534Z 22006KT 18/01 A30 RMK A01 T01800009  RH  032%=      5-min Rain = 0
KAHS 131535Z 21008KT 18/01 A30 RMK A01 T01780007  RH  032%=      5-min Rain = 0
KAHS 131536Z 22008KT 18/01 A30 RMK A01 T01780008  RH  032%=      5-min Rain = 0
KAHS 131537Z 22008KT 18/01 A30 RMK A01 T01780008  RH  032%=      5-min Rain = 0
KAHS 131538Z 23007KT 18/01 A30 RMK A01 T01790010  RH  032%=      5-min Rain = 0
KAHS 131539Z 23007KT 18/01 A30 RMK A01 T01790009  RH  032%=      5-min Rain = 0
KAHS 131540Z 22010KT 18/01 A30 RMK A01 T01810010  RH  032%=      5-min Rain = 0
KAHS 131541Z 21009KT 18/01 A30 RMK A01 T01800009  RH  032%=      5-min Rain = 0
KAHS 131542Z 22010KT 18/01 A30 RMK A01 T01800009  RH  032%=      5-min Rain = 0
KAHS 131543Z 23009KT 18/01 A30 RMK A01 T01800010  RH  032%=      5-min Rain = 0
KAHS 131544Z 23009KT 18/01 A30 RMK A01 T01800009  RH  032%=      5-min Rain = 0
KAHS 131545Z 23009KT 18/01 A30 RMK A01 T01800011  RH  032%=      5-min Rain = 0
KAHS 131546Z 23008KT 18/01 A30 RMK A01 T01820013  RH  032%=      5-min Rain = 0
KAHS 131547Z 23009KT 19/01 A30 RMK A01 T01850013  RH  031%=      5-min Rain = 0
KAHS 131548Z 23007KT 19/01 A30 RMK A01 T01860012  RH  031%=      5-min Rain = 0
KAHS 131549Z 24006KT 19/01 A30 RMK A01 T01860011  RH  031%=      5-min Rain = 0
KAHS 131550Z 24009KT 19/01 A30 RMK A01 T01860011  RH  031%=      5-min Rain = 0
KAHS 131551Z 23009KT 19/01 A30 RMK A01 T01850012  RH  031%=      5-min Rain = 0
KAHS 131552Z 23009KT 19/01 A30 RMK A01 T01870013  RH  031%=      5-min Rain = 0
KAHS 131553Z 23008KT 19/01 A30 RMK A01 T01870012  RH  031%=      5-min Rain = 0
KAHS 131554Z 23007KT 19/01 A30 RMK A01 T01880013  RH  031%=      5-min Rain = 0
KAHS 131555Z 23008KT 19/01 A30 RMK A01 T01890013  RH  031%=      5-min Rain = 0
KAHS 131556Z 23009KT 19/01 A30 RMK A01 T01900013  RH  031%=      5-min Rain = 0
KAHS 131557Z 22011KT 19/01 A30 RMK A01 T01900013  RH  030%=      5-min Rain = 0
KAHS 131558Z 22012KT 19/01 A30 RMK A01 T01900013  RH  031%=      5-min Rain = 0
KAHS 131559Z 23011KT 19/01 A30 RMK A01 T01880012  RH  031%=      5-min Rain = 0
KAHS 131600Z 23009KT 19/01 A30 RMK A01 T01890014  RH  031%=      5-min Rain = 0
KAHS 131601Z 24007KT 19/02 A30 RMK A01 T01910015  RH  031%=      5-min Rain = 0
KAHS 131602Z 25009KT 19/02 A30 RMK A01 T01940016  RH  030%=      5-min Rain = 0
KAHS 131603Z 24009KT 19/01 A30 RMK A01 T01940014  RH  030%=      5-min Rain = 0
KAHS 131604Z 22007KT 20/02 A30 RMK A01 T01960016  RH  030%=      5-min Rain = 0
KAHS 131605Z 24008KT 20/02 A30 RMK A01 T01980017  RH  030%=      5-min Rain = 0
KAHS 131606Z 24009KT 20/02 A30 RMK A01 T01980015  RH  030%=      5-min Rain = 0
KAHS 131607Z 22009KT 20/02 A30 RMK A01 T01980016  RH  030%=      5-min Rain = 0
KAHS 131608Z 23009KT 20/02 A30 RMK A01 T01980016  RH  030%=      5-min Rain = 0
KAHS 131609Z 21010KT 20/02 A30 RMK A01 T01970015  RH  030%=      5-min Rain = 0
KAHS 131610Z 23010KT 20/02 A30 RMK A01 T01970015  RH  030%=      5-min Rain = 0
KAHS 131611Z 23006KT 20/02 A30 RMK A01 T01990018  RH  030%=      5-min Rain = 0
KAHS 131612Z 24007KT 20/02 A30 RMK A01 T02040019  RH  029%=      5-min Rain = 0
KAHS 131613Z 23009KT 20/02 A30 RMK A01 T02020015  RH  029%=      5-min Rain = 0
KAHS 131614Z 22009KT 20/02 A30 RMK A01 T02000016  RH  029%=      5-min Rain = 0
KAHS 131615Z 21009KT 20/02 A30 RMK A01 T01990017  RH  030%=      5-min Rain = 0
KAHS 131616Z 21008KT 20/02 A2999 RMK A01 T01990017  RH  030%=      5-min Rain = 0
KAHS 131617Z 21006KT 20/02 A2999 RMK A01 T02010020  RH  030%=      5-min Rain = 0
KAHS 131618Z 22008KT 20/02 A2999 RMK A01 T02030019  RH  029%=      5-min Rain = 0
KAHS 131619Z 24008KT 20/02 A2999 RMK A01 T02030018  RH  029%=      5-min Rain = 0
KAHS 131620Z 24008KT 21/02 A2999 RMK A01 T02050019  RH  029%=      5-min Rain = 0
KAHS 131621Z 22010KT 21/02 A2999 RMK A01 T02060018  RH  029%=      5-min Rain = 0
KAHS 131622Z 21009KT 21/02 A2999 RMK A01 T02050019  RH  029%=      5-min Rain = 0
KAHS 131623Z 22008KT 21/02 A2999 RMK A01 T02050019  RH  029%=      5-min Rain = 0
KAHS 131624Z 21007KT 21/02 A2999 RMK A01 T02070021  RH  029%=      5-min Rain = 0
KAHS 131625Z 23007KT 21/02 A2999 RMK A01 T02100023  RH  029%=      5-min Rain = 0
KAHS 131626Z 23007KT 21/02 A2999 RMK A01 T02140023  RH  028%=      5-min Rain = 0
KAHS 131627Z 23005KT 22/02 A2999 RMK A01 T02150022  RH  028%=      5-min Rain = 0
KAHS 131628Z 22007KT 21/02 A2999 RMK A01 T02140022  RH  028%=      5-min Rain = 0
KAHS 131629Z 23009KT 21/02 A2999 RMK A01 T02140020  RH  028%=      5-min Rain = 0
KAHS 131630Z 21006KT 21/02 A2999 RMK A01 T02120023  RH  029%=      5-min Rain = 0
KAHS 131631Z 23008KT 22/02 A2999 RMK A01 T02150024  RH  028%=      5-min Rain = 0
KAHS 131632Z 22008KT 22/02 A2999 RMK A01 T02160023  RH  028%=      5-min Rain = 0
KAHS 131633Z 24008KT 22/02 A2999 RMK A01 T02160021  RH  028%=      5-min Rain = 0
KAHS 131634Z 21009KT 22/02 A2999 RMK A01 T02160023  RH  028%=      5-min Rain = 0
KAHS 131635Z 22008KT 22/02 A2999 RMK A01 T02150022  RH  028%=      5-min Rain = 0
KAHS 131636Z 21008KT 22/02 A2999 RMK A01 T02160024  RH  028%=      5-min Rain = 0
KAHS 131637Z 22008KT 22/02 A2999 RMK A01 T02160022  RH  028%=      5-min Rain = 0
KAHS 131638Z 22007KT 22/02 A2999 RMK A01 T02150023  RH  028%=      5-min Rain = 0
KAHS 131639Z 22008KT 22/02 A2999 RMK A01 T02170024  RH  028%=      5-min Rain = 0
KAHS 131640Z 21010KT 22/02 A2999 RMK A01 T02170023  RH  028%=      5-min Rain = 0
KAHS 131641Z 23010KT 22/02 A2999 RMK A01 T02150022  RH  028%=      5-min Rain = 0
KAHS 131642Z 23008KT 21/02 A2999 RMK A01 T02140022  RH  028%=      5-min Rain = 0
KAHS 131643Z 22009KT 22/03 A2999 RMK A01 T02170025  RH  028%=      5-min Rain = 0
KAHS 131644Z 23008KT 22/02 A2999 RMK A01 T02200024  RH  028%=      5-min Rain = 0
KAHS 131645Z 23007KT 22/02 A2999 RMK A01 T02190023  RH  027%=      5-min Rain = 0
KAHS 131646Z 22009KT 22/03 A2999 RMK A01 T02190025  RH  028%=      5-min Rain = 0
KAHS 131647Z 22010KT 22/03 A2999 RMK A01 T02200025  RH  028%=      5-min Rain = 0
KAHS 131648Z 21008KT 22/02 A2999 RMK A01 T02190023  RH  027%=      5-min Rain = 0
KAHS 131649Z 23009KT 22/02 A2999 RMK A01 T02200023  RH  027%=      5-min Rain = 0
KAHS 131650Z 24008KT 22/02 A2999 RMK A01 T02180022  RH  027%=      5-min Rain = 0
KAHS 131651Z 25007KT 22/03 A2999 RMK A01 T02190025  RH  028%=      5-min Rain = 0
KAHS 131652Z 25009KT 22/03 A2999 RMK A01 T02210025  RH  028%=      5-min Rain = 0
KAHS 131653Z 24008KT 22/03 A2999 RMK A01 T02220026  RH  027%=      5-min Rain = 0
KAHS 131654Z 24007KT 22/03 A2999 RMK A01 T02230026  RH  027%=      5-min Rain = 0
KAHS 131655Z 22005KT 23/03 A2999 RMK A01 T02260030  RH  027%=      5-min Rain = 0
KAHS 131656Z 22008KT 23/03 A2999 RMK A01 T02320029  RH  027%=      5-min Rain = 0
KAHS 131657Z 23007KT 23/03 A2999 RMK A01 T02300026  RH  026%=      5-min Rain = 0
KAHS 131658Z 24008KT 23/03 A2998 RMK A01 T02300026  RH  026%=      5-min Rain = 0
KAHS 131659Z 22006KT 23/03 A2998 RMK A01 T02300028  RH  026%=      5-min Rain = 0
KAHS 131700Z 23007KT 23/03 A2998 RMK A01 T02320027  RH  026%=      5-min Rain = 0
KAHS 131701Z 22006KT 23/03 A2998 RMK A01 T02300028  RH  026%=      5-min Rain = 0
KAHS 131702Z 22007KT 23/03 A2998 RMK A01 T02320029  RH  026%=      5-min Rain = 0
KAHS 131703Z 22009KT 23/03 A2998 RMK A01 T02340030  RH  026%=      5-min Rain = 0
KAHS 131704Z 22008KT 23/03 A2998 RMK A01 T02330028  RH  026%=      5-min Rain = 0
KAHS 131705Z 21006KT 23/03 A2998 RMK A01 T02340031  RH  026%=      5-min Rain = 0
KAHS 131706Z 23007KT 24/03 A2998 RMK A01 T02350031  RH  026%=      5-min Rain = 0
KAHS 131707Z 26007KT 24/03 A2998 RMK A01 T02360028  RH  026%=      5-min Rain = 0
KAHS 131708Z 24007KT 23/03 A2998 RMK A01 T02340027  RH  026%=      5-min Rain = 0
KAHS 131709Z 24006KT 23/03 A2998 RMK A01 T02340028  RH  026%=      5-min Rain = 0
KAHS 131710Z 24007KT 23/03 A2998 RMK A01 T02330027  RH  026%=      5-min Rain = 0
KAHS 131711Z 22005KT 23/03 A2998 RMK A01 T02320027  RH  026%=      5-min Rain = 0
KAHS 131712Z 22004KT 23/03 A2998 RMK A01 T02330029  RH  026%=      5-min Rain = 0
KAHS 131713Z 25007KT 24/03 A2998 RMK A01 T02380031  RH  026%=      5-min Rain = 0
KAHS 131714Z 23008KT 24/03 A2998 RMK A01 T02380027  RH  025%=      5-min Rain = 0
KAHS 131715Z 23005KT 24/03 A2998 RMK A01 T02370028  RH  026%=      5-min Rain = 0
KAHS 131716Z 25003KT 24/03 A2998 RMK A01 T02370028  RH  025%=      5-min Rain = 0
KAHS 131717Z 22007KT 24/03 A2998 RMK A01 T02390030  RH  026%=      5-min Rain = 0
KAHS 131718Z 20006KT 24/03 A2998 RMK A01 T02380028  RH  025%=      5-min Rain = 0
KAHS 131719Z 20007KT 24/03 A2998 RMK A01 T02380029  RH  026%=      5-min Rain = 0
KAHS 131720Z 20007KT 24/03 A2998 RMK A01 T02400031  RH  026%=      5-min Rain = 0
KAHS 131721Z 19004KT 24/03 A2998 RMK A01 T02410030  RH  025%=      5-min Rain = 0
KAHS 131722Z 22005KT 24/03 A2998 RMK A01 T02420030  RH  025%=      5-min Rain = 0
KAHS 131723Z 26006KT 24/03 A2998 RMK A01 T02430029  RH  025%=      5-min Rain = 0
KAHS 131724Z 28006KT 24/03 A2998 RMK A01 T02420028  RH  025%=      5-min Rain = 0
KAHS 131725Z 28005KT 24/03 A2998 RMK A01 T02420029  RH  025%=      5-min Rain = 0
KAHS 131726Z 25005KT 25/03 A2998 RMK A01 T02450030  RH  025%=      5-min Rain = 0
KAHS 131727Z 24003KT 25/03 A2998 RMK A01 T02460028  RH  024%=      5-min Rain = 0
KAHS 131728Z 26002KT 24/03 A2998 RMK A01 T02440027  RH  024%=      5-min Rain = 0
KAHS 131729Z 28004KT 25/03 A2998 RMK A01 T02450030  RH  025%=      5-min Rain = 0
KAHS 131730Z 21006KT 25/03 A2998 RMK A01 T02470032  RH  025%=      5-min Rain = 0
KAHS 131731Z 22005KT 25/03 A2998 RMK A01 T02480031  RH  024%=      5-min Rain = 0
KAHS 131732Z 24007KT 25/03 A2998 RMK A01 T02510033  RH  024%=      5-min Rain = 0
KAHS 131733Z 24007KT 25/03 A2998 RMK A01 T02480028  RH  024%=      5-min Rain = 0
KAHS 131734Z 23004KT 24/03 A2998 RMK A01 T02440027  RH  024%=      5-min Rain = 0
KAHS 131735Z 23003KT 24/03 A2998 RMK A01 T02440030  RH  025%=      5-min Rain = 0
KAHS 131736Z 24004KT 25/03 A2998 RMK A01 T02460031  RH  025%=      5-min Rain = 0
KAHS 131737Z 23005KT 25/03 A2998 RMK A01 T02470030  RH  024%=      5-min Rain = 0
KAHS 131738Z 22004KT 25/03 A2998 RMK A01 T02480030  RH  024%=      5-min Rain = 0
KAHS 131739Z 26008KT 25/03 A2998 RMK A01 T02490031  RH  024%=      5-min Rain = 0
KAHS 131740Z 26007KT 25/03 A2997 RMK A01 T02500030  RH  024%=      5-min Rain = 0
KAHS 131741Z 27006KT 25/03 A2997 RMK A01 T02490030  RH  024%=      5-min Rain = 0
KAHS 131742Z 27002KT 25/03 A2997 RMK A01 T02480029  RH  024%=      5-min Rain = 0
KAHS 131743Z 25007KT 25/03 A2997 RMK A01 T02500031  RH  024%=      5-min Rain = 0
KAHS 131744Z 24007KT 25/03 A2997 RMK A01 T02490030  RH  024%=      5-min Rain = 0
KAHS 131745Z 22006KT 25/03 A2997 RMK A01 T02480030  RH  024%=      5-min Rain = 0
KAHS 131746Z 23003KT 25/03 A2997 RMK A01 T02500031  RH  024%=      5-min Rain = 0
KAHS 131747Z 21002KT 25/03 A2997 RMK A01 T02500029  RH  024%=      5-min Rain = 0
KAHS 131748Z 15001KT 25/03 A2997 RMK A01 T02510032  RH  024%=      5-min Rain = 0
KAHS 131749Z 25004KT 26/03 A2997 RMK A01 T02550033  RH  024%=      5-min Rain = 0
KAHS 131750Z 23008KT 26/03 A2997 RMK A01 T02560031  RH  023%=      5-min Rain = 0
KAHS 131751Z 24007KT 26/03 A2997 RMK A01 T02560032  RH  023%=      5-min Rain = 0
KAHS 131752Z 22007KT 26/03 A2997 RMK A01 T02560031  RH  023%=      5-min Rain = 0
KAHS 131753Z 21005KT 26/03 A2997 RMK A01 T02560031  RH  023%=      5-min Rain = 0
KAHS 131754Z 24006KT 26/03 A2997 RMK A01 T02560031  RH  023%=      5-min Rain = 0
KAHS 131755Z 24006KT 26/03 A2997 RMK A01 T02550032  RH  023%=      5-min Rain = 0
KAHS 131756Z 23005KT 26/03 A2997 RMK A01 T02550031  RH  023%=      5-min Rain = 0
KAHS 131757Z 23002KT 25/03 A2997 RMK A01 T02540030  RH  023%=      5-min Rain = 0
KAHS 131758Z 21005KT 25/03 A2997 RMK A01 T02530030  RH  024%=      5-min Rain = 0
KAHS 131759Z 22007KT 25/03 A2997 RMK A01 T02540033  RH  024%=      5-min Rain = 0
KAHS 131800Z 22005KT 25/03 A2997 RMK A01 T02540032  RH  024%=      5-min Rain = 0
KAHS 131801Z 21005KT 25/03 A2997 RMK A01 T02540034  RH  024%=      5-min Rain = 0
KAHS 131802Z 19004KT 26/03 A2997 RMK A01 T02560033  RH  024%=      5-min Rain = 0
KAHS 131803Z 17007KT 26/03 A2997 RMK A01 T02580034  RH  024%=      5-min Rain = 0
KAHS 131804Z 22007KT 26/03 A2997 RMK A01 T02590034  RH  023%=      5-min Rain = 0
KAHS 131805Z 22006KT 26/03 A2997 RMK A01 T02570030  RH  023%=      5-min Rain = 0
KAHS 131806Z 21006KT 26/03 A2997 RMK A01 T02550031  RH  023%=      5-min Rain = 0
KAHS 131807Z 21006KT 26/03 A2997 RMK A01 T02560033  RH  024%=      5-min Rain = 0
KAHS 131808Z 23005KT 26/03 A2997 RMK A01 T02600034  RH  023%=      5-min Rain = 0
KAHS 131809Z 22008KT 26/04 A2997 RMK A01 T02640035  RH  023%=      5-min Rain = 0
KAHS 131810Z 21007KT 26/03 A2997 RMK A01 T02600031  RH  023%=      5-min Rain = 0
KAHS 131811Z 23008KT 26/03 A2996 RMK A01 T02580033  RH  023%=      5-min Rain = 0
KAHS 131812Z 22006KT 26/03 A2996 RMK A01 T02580033  RH  023%=      5-min Rain = 0
KAHS 131813Z 20005KT 26/03 A2996 RMK A01 T02590033  RH  023%=      5-min Rain = 0
KAHS 131814Z 21005KT 26/04 A2996 RMK A01 T02620035  RH  023%=      5-min Rain = 0
KAHS 131815Z 22004KT 26/04 A2996 RMK A01 T02640035  RH  023%=      5-min Rain = 0
KAHS 131816Z 21004KT 27/04 A2996 RMK A01 T02660035  RH  023%=      5-min Rain = 0
KAHS 131817Z 21004KT 27/04 A2996 RMK A01 T02670036  RH  022%=      5-min Rain = 0
KAHS 131818Z 24006KT 27/04 A2996 RMK A01 T02700037  RH  022%=      5-min Rain = 0
KAHS 131819Z 23007KT 27/04 A2996 RMK A01 T02710036  RH  022%=      5-min Rain = 0
KAHS 131820Z 25005KT 27/03 A2996 RMK A01 T02680034  RH  022%=      5-min Rain = 0
KAHS 131821Z 25004KT 27/03 A2996 RMK A01 T02650033  RH  022%=      5-min Rain = 0
KAHS 131822Z 22006KT 26/03 A2996 RMK A01 T02630033  RH  022%=      5-min Rain = 0
KAHS 131823Z 21004KT 26/03 A2996 RMK A01 T02620032  RH  023%=      5-min Rain = 0
KAHS 131824Z 18005KT 26/03 A2996 RMK A01 T02630034  RH  023%=      5-min Rain = 0
KAHS 131825Z 19005KT 27/03 A2996 RMK A01 T02650034  RH  023%=      5-min Rain = 0
KAHS 131826Z 20006KT 27/04 A2996 RMK A01 T02670035  RH  022%=      5-min Rain = 0
KAHS 131827Z 19006KT 27/04 A2996 RMK A01 T02690036  RH  022%=      5-min Rain = 0
KAHS 131828Z 20006KT 27/04 A2996 RMK A01 T02700035  RH  022%=      5-min Rain = 0
KAHS 131829Z 20006KT 27/03 A2996 RMK A01 T02690034  RH  022%=      5-min Rain = 0
KAHS 131830Z 18006KT 27/04 A2996 RMK A01 T02690037  RH  022%=      5-min Rain = 0
KAHS 131831Z 19006KT 27/04 A2996 RMK A01 T02710037  RH  022%=      5-min Rain = 0
KAHS 131832Z 20006KT 27/04 A2996 RMK A01 T02740038  RH  022%=      5-min Rain = 0
KAHS 131833Z 23005KT 27/04 A2995 RMK A01 T02710035  RH  022%=      5-min Rain = 0
KAHS 131834Z 21007KT 27/04 A2995 RMK A01 T02700036  RH  022%=      5-min Rain = 0
KAHS 131835Z 19006KT 27/04 A2995 RMK A01 T02720035  RH  022%=      5-min Rain = 0
KAHS 131836Z 18007KT 27/04 A2995 RMK A01 T02700035  RH  022%=      5-min Rain = 0
KAHS 131837Z 17006KT 27/04 A2995 RMK A01 T02700035  RH  022%=      5-min Rain = 0
KAHS 131838Z 17006KT 27/04 A2995 RMK A01 T02720036  RH  022%=      5-min Rain = 0
KAHS 131839Z 18003KT 27/04 A2995 RMK A01 T02740038  RH  022%=      5-min Rain = 0
KAHS 131840Z 16003KT 28/04 A2995 RMK A01 T02760037  RH  022%=      5-min Rain = 0
KAHS 131841Z 18005KT 28/04 A2995 RMK A01 T02770038  RH  022%=      5-min Rain = 0
KAHS 131842Z 20006KT 28/04 A2995 RMK A01 T02760036  RH  021%=      5-min Rain = 0
KAHS 131843Z 20005KT 27/04 A2995 RMK A01 T02740037  RH  022%=      5-min Rain = 0
KAHS 131844Z 20005KT 27/04 A2995 RMK A01 T02730035  RH  022%=      5-min Rain = 0
KAHS 131845Z 21006KT 27/04 A2995 RMK A01 T02720036  RH  022%=      5-min Rain = 0
KAHS 131846Z 16005KT 28/04 A2995 RMK A01 T02750037  RH  022%=      5-min Rain = 0
KAHS 131847Z 18007KT 28/04 A2995 RMK A01 T02750038  RH  022%=      5-min Rain = 0
KAHS 131848Z 20005KT 28/04 A2995 RMK A01 T02780039  RH  022%=      5-min Rain = 0
KAHS 131849Z 19003KT 28/04 A2994 RMK A01 T02770036  RH  021%=      5-min Rain = 0
KAHS 131850Z 21006KT 28/04 A2994 RMK A01 T02770038  RH  022%=      5-min Rain = 0
KAHS 131851Z 22007KT 28/04 A2994 RMK A01 T02770037  RH  021%=      5-min Rain = 0
KAHS 131852Z 21008KT 28/04 A2994 RMK A01 T02780038  RH  021%=      5-min Rain = 0
KAHS 131853Z 19005KT 28/04 A2994 RMK A01 T02760036  RH  021%=      5-min Rain = 0
KAHS 131854Z 21004KT 28/04 A2994 RMK A01 T02780038  RH  022%=      5-min Rain = 0
KAHS 131855Z 24007KT 28/04 A2994 RMK A01 T02800039  RH  021%=      5-min Rain = 0
KAHS 131856Z 24004KT 28/04 A2994 RMK A01 T02810038  RH  021%=      5-min Rain = 0
KAHS 131857Z 19006KT 28/04 A2994 RMK A01 T02810039  RH  021%=      5-min Rain = 0
KAHS 131858Z 18007KT 28/04 A2994 RMK A01 T02810039  RH  021%=      5-min Rain = 0
KAHS 131859Z 18006KT 28/04 A2994 RMK A01 T02800038  RH  021%=      5-min Rain = 0
KAHS 131900Z 22008KT 28/04 A2994 RMK A01 T02820040  RH  021%=      5-min Rain = 0
KAHS 131901Z 23006KT 28/04 A2994 RMK A01 T02820037  RH  021%=      5-min Rain = 0
KAHS 131902Z 24004KT 28/04 A2994 RMK A01 T02810038  RH  021%=      5-min Rain = 0
KAHS 131903Z 20005KT 28/04 A2994 RMK A01 T02830041  RH  021%=      5-min Rain = 0
KAHS 131904Z 20006KT 29/04 A2994 RMK A01 T02850040  RH  021%=      5-min Rain = 0
KAHS 131905Z 21006KT 29/04 A2993 RMK A01 T02860038  RH  021%=      5-min Rain = 0
KAHS 131906Z 22005KT 28/04 A2993 RMK A01 T02820035  RH  021%=      5-min Rain = 0
KAHS 131907Z 24004KT 28/04 A2993 RMK A01 T02790037  RH  021%=      5-min Rain = 0
KAHS 131908Z 22007KT 28/04 A2993 RMK A01 T02810040  RH  021%=      5-min Rain = 0
KAHS 131909Z 22008KT 29/04 A2993 RMK A01 T02850039  RH  021%=      5-min Rain = 0
KAHS 131910Z 23006KT 29/04 A2993 RMK A01 T02850038  RH  021%=      5-min Rain = 0
KAHS 131911Z 24005KT 28/04 A2993 RMK A01 T02840036  RH  021%=      5-min Rain = 0
KAHS 131912Z 24004KT 28/04 A2993 RMK A01 T02840037  RH  021%=      5-min Rain = 0
KAHS 131913Z 27002KT 28/04 A2993 RMK A01 T02840038  RH  021%=      5-min Rain = 0
KAHS 131914Z 23007KT 29/04 A2993 RMK A01 T02880039  RH  020%=      5-min Rain = 0
KAHS 131915Z 23006KT 29/04 A2993 RMK A01 T02850036  RH  020%=      5-min Rain = 0
KAHS 131916Z 22004KT 28/04 A2993 RMK A01 T02830036  RH  021%=      5-min Rain = 0
KAHS 131917Z 21003KT 28/04 A2993 RMK A01 T02820038  RH  021%=      5-min Rain = 0
KAHS 131918Z 22002KT 28/04 A2993 RMK A01 T02840037  RH  021%=      5-min Rain = 0
KAHS 131919Z 22006KT 29/04 A2993 RMK A01 T02870041  RH  021%=      5-min Rain = 0
KAHS 131920Z 24006KT 29/04 A2993 RMK A01 T02890038  RH  020%=      5-min Rain = 0
KAHS 131921Z 23005KT 29/04 A2993 RMK A01 T02890040  RH  021%=      5-min Rain = 0
KAHS 131922Z 28007KT 29/04 A2993 RMK A01 T02910039  RH  020%=      5-min Rain = 0
KAHS 131923Z 26004KT 29/04 A2993 RMK A01 T02870038  RH  020%=      5-min Rain = 0
KAHS 131924Z 24004KT 29/04 A2993 RMK A01 T02880040  RH  021%=      5-min Rain = 0
KAHS 131925Z 25007KT 29/04 A2992 RMK A01 T02880038  RH  020%=      5-min Rain = 0
KAHS 131926Z 26005KT 29/04 A2992 RMK A01 T02880039  RH  020%=      5-min Rain = 0
KAHS 131927Z 25007KT 29/04 A2992 RMK A01 T02920041  RH  020%=      5-min Rain = 0
KAHS 131928Z 22007KT 29/04 A2992 RMK A01 T02930040  RH  020%=      5-min Rain = 0
KAHS 131929Z 25007KT 29/04 A2992 RMK A01 T02910039  RH  020%=      5-min Rain = 0
KAHS 131930Z 25007KT 29/04 A2992 RMK A01 T02900038  RH  020%=      5-min Rain = 0
KAHS 131931Z 24006KT 29/04 A2992 RMK A01 T02870037  RH  020%=      5-min Rain = 0
KAHS 131932Z 27004KT 29/04 A2992 RMK A01 T02850038  RH  021%=      5-min Rain = 0
KAHS 131933Z 27002KT 29/04 A2992 RMK A01 T02870040  RH  021%=      5-min Rain = 0
KAHS 131934Z 22002KT 29/04 A2992 RMK A01 T02900039  RH  020%=      5-min Rain = 0
KAHS 131935Z 22005KT 29/04 A2992 RMK A01 T02920041  RH  020%=      5-min Rain = 0
KAHS 131936Z 23006KT 29/04 A2992 RMK A01 T02930040  RH  020%=      5-min Rain = 0
KAHS 131937Z 23003KT 29/04 A2992 RMK A01 T02920038  RH  020%=      5-min Rain = 0
KAHS 131938Z 19002KT 29/04 A2992 RMK A01 T02920039  RH  020%=      5-min Rain = 0
KAHS 131939Z 20003KT 29/04 A2992 RMK A01 T02940041  RH  020%=      5-min Rain = 0
KAHS 131940Z 22008KT 30/04 A2992 RMK A01 T02960041  RH  020%=      5-min Rain = 0
KAHS 131941Z 22007KT 29/04 A2992 RMK A01 T02930039  RH  020%=      5-min Rain = 0
KAHS 131942Z 23004KT 29/04 A2992 RMK A01 T02930041  RH  020%=      5-min Rain = 0
KAHS 131943Z 24004KT 29/04 A2992 RMK A01 T02940040  RH  020%=      5-min Rain = 0
KAHS 131944Z 21004KT 30/04 A2992 RMK A01 T02950041  RH  020%=      5-min Rain = 0
KAHS 131945Z 23006KT 30/04 A2992 RMK A01 T02960041  RH  020%=      5-min Rain = 0
KAHS 131946Z 22007KT 30/04 A2991 RMK A01 T02960041  RH  020%=      5-min Rain = 0
KAHS 131947Z 21009KT 29/04 A2991 RMK A01 T02940040  RH  020%=      5-min Rain = 0
KAHS 131948Z 21008KT 29/04 A2991 RMK A01 T02940039  RH  020%=      5-min Rain = 0
KAHS 131949Z 20004KT 29/04 A2991 RMK A01 T02910039  RH  020%=      5-min Rain = 0
KAHS 131950Z 23006KT 29/04 A2991 RMK A01 T02920040  RH  020%=      5-min Rain = 0
KAHS 131951Z 21005KT 29/04 A2991 RMK A01 T02910037  RH  020%=      5-min Rain = 0
KAHS 131952Z 16004KT 29/04 A2991 RMK A01 T02920040  RH  020%=      5-min Rain = 0
KAHS 131953Z 21004KT 29/04 A2991 RMK A01 T02940039  RH  020%=      5-min Rain = 0
KAHS 131954Z 21002KT 29/04 A2991 RMK A01 T02930038  RH  020%=      5-min Rain = 0
KAHS 131955Z 20005G10KT 29/04 A2991 RMK A01 T02940040  RH  020%=      5-min Rain = 0
KAHS 131956Z 20010KT 30/04 A2991 RMK A01 T02960039  RH  019%=      5-min Rain = 0
KAHS 131957Z 20008KT 30/04 A2991 RMK A01 T02950038  RH  019%=      5-min Rain = 0
KAHS 131958Z 19007KT 29/04 A2991 RMK A01 T02940037  RH  019%=      5-min Rain = 0
KAHS 131959Z 16004KT 29/04 A2991 RMK A01 T02940036  RH  019%=      5-min Rain = 0
KAHS 132000Z 19006KT 30/04 A2991 RMK A01 T02960040  RH  020%=      5-min Rain = 0
KAHS 132001Z 18008KT 30/04 A2991 RMK A01 T02970036  RH  019%=      5-min Rain = 0
KAHS 132002Z 20004KT 30/04 A2991 RMK A01 T02950036  RH  019%=      5-min Rain = 0
KAHS 132003Z 21006KT 30/04 A2991 RMK A01 T02970038  RH  019%=      5-min Rain = 0
KAHS 132004Z 20005KT 30/04 A2991 RMK A01 T02960037  RH  019%=      5-min Rain = 0
KAHS 132005Z 17005KT 30/04 A2991 RMK A01 T02950035  RH  019%=      5-min Rain = 0
KAHS 132006Z 24005G10KT 29/04 A2991 RMK A01 T02940035  RH  019%=      5-min Rain = 0
KAHS 132007Z 24006KT 30/04 A2991 RMK A01 T02960035  RH  019%=      5-min Rain = 0
KAHS 132008Z 20005KT 30/04 A2991 RMK A01 T02980038  RH  019%=      5-min Rain = 0
KAHS 132009Z 21008KT 30/04 A2991 RMK A01 T03000038  RH  019%=      5-min Rain = 0
KAHS 132010Z 20008KT 30/04 A2991 RMK A01 T02990038  RH  019%=      5-min Rain = 0
KAHS 132011Z 20006KT 30/04 A2991 RMK A01 T02970037  RH  019%=      5-min Rain = 0
KAHS 132012Z 21005KT 30/04 A2991 RMK A01 T02990039  RH  019%=      5-min Rain = 0
KAHS 132013Z 25004KT 30/04 A2991 RMK A01 T02980036  RH  019%=      5-min Rain = 0
KAHS 132014Z 26005KT 30/04 A2991 RMK A01 T03000038  RH  019%=      5-min Rain = 0
KAHS 132015Z 25004KT 30/04 A2991 RMK A01 T03000035  RH  019%=      5-min Rain = 0
KAHS 132016Z 22005KT 30/04 A2991 RMK A01 T02980035  RH  019%=      5-min Rain = 0
KAHS 132017Z 19006KT 30/04 A2991 RMK A01 T02980037  RH  019%=      5-min Rain = 0
KAHS 132018Z 22004KT 30/04 A299 RMK A01 T03000037  RH  019%=      5-min Rain = 0
KAHS 132019Z 21003KT 30/03 A299 RMK A01 T02990034  RH  019%=      5-min Rain = 0
KAHS 132020Z 23003KT 30/04 A299 RMK A01 T03000036  RH  019%=      5-min Rain = 0
KAHS 132021Z 19007KT 30/04 A299 RMK A01 T03010036  RH  018%=      5-min Rain = 0
KAHS 132022Z 17007KT 30/04 A299 RMK A01 T03020037  RH  019%=      5-min Rain = 0
KAHS 132023Z 17004KT 30/04 A299 RMK A01 T03020036  RH  018%=      5-min Rain = 0
KAHS 132024Z 21010KT 30/04 A299 RMK A01 T03020037  RH  018%=      5-min Rain = 0
KAHS 132025Z 20006KT 30/04 A299 RMK A01 T03010037  RH  019%=      5-min Rain = 0
KAHS 132026Z 19006KT 30/04 A299 RMK A01 T03030038  RH  019%=      5-min Rain = 0
KAHS 132027Z 19008KT 30/04 A299 RMK A01 T03040038  RH  018%=      5-min Rain = 0
KAHS 132028Z 18006KT 30/04 A299 RMK A01 T03020037  RH  019%=      5-min Rain = 0
KAHS 132029Z 16004KT 30/04 A299 RMK A01 T03030038  RH  019%=      5-min Rain = 0
KAHS 132030Z 18005KT 30/04 A299 RMK A01 T03030035  RH  018%=      5-min Rain = 0
KAHS 132031Z 17004KT 30/04 A299 RMK A01 T03020037  RH  019%=      5-min Rain = 0
KAHS 132032Z 20007KT 30/04 A299 RMK A01 T03020035  RH  018%=      5-min Rain = 0
KAHS 132033Z 20007KT 30/04 A299 RMK A01 T03030036  RH  018%=      5-min Rain = 0
KAHS 132034Z 21006KT 30/03 A299 RMK A01 T03020034  RH  018%=      5-min Rain = 0
KAHS 132035Z 19005KT 30/04 A299 RMK A01 T03010035  RH  018%=      5-min Rain = 0
KAHS 132036Z 19004KT 30/04 A299 RMK A01 T03020037  RH  019%=      5-min Rain = 0
KAHS 132037Z 21006KT 31/04 A299 RMK A01 T03050037  RH  018%=      5-min Rain = 0
KAHS 132038Z 18006KT 30/04 A299 RMK A01 T03040035  RH  018%=      5-min Rain = 0
KAHS 132039Z 17006KT 31/04 A299 RMK A01 T03050037  RH  018%=      5-min Rain = 0
KAHS 132040Z 16007KT 31/04 A299 RMK A01 T03060036  RH  018%=      5-min Rain = 0
KAHS 132041Z 17003KT 30/03 A299 RMK A01 T03040033  RH  018%=      5-min Rain = 0
KAHS 132042Z 14004KT 30/03 A299 RMK A01 T03040034  RH  018%=      5-min Rain = 0
KAHS 132043Z 16004KT 31/04 A299 RMK A01 T03050036  RH  018%=      5-min Rain = 0
KAHS 132044Z 20003KT 31/04 A299 RMK A01 T03090037  RH  018%=      5-min Rain = 0
KAHS 132045Z 26005KT 31/04 A299 RMK A01 T03110036  RH  018%=      5-min Rain = 0
KAHS 132046Z 24003KT 31/03 A299 RMK A01 T03110033  RH  017%=      5-min Rain = 0
KAHS 132047Z 25004KT 31/03 A299 RMK A01 T03090034  RH  017%=      5-min Rain = 0
KAHS 132048Z 27005KT 31/04 A299 RMK A01 T03110035  RH  017%=      5-min Rain = 0
KAHS 132049Z 28004KT 31/03 A299 RMK A01 T03080032  RH  017%=      5-min Rain = 0
KAHS 132050Z 29003KT 31/03 A299 RMK A01 T03070033  RH  018%=      5-min Rain = 0
KAHS 132051Z 32002KT 31/03 A299 RMK A01 T03070034  RH  018%=      5-min Rain = 0
KAHS 132052Z 01002KT 31/03 A299 RMK A01 T03090033  RH  017%=      5-min Rain = 0
KAHS 132053Z 33001KT 31/03 A2989 RMK A01 T03070031  RH  017%=      5-min Rain = 0
KAHS 132054Z 04002KT 31/03 A2989 RMK A01 T03060032  RH  017%=      5-min Rain = 0
KAHS 132055Z 03002KT 31/03 A2989 RMK A01 T03070032  RH  017%=      5-min Rain = 0
KAHS 132056Z 05002KT 31/03 A2989 RMK A01 T03060033  RH  018%=      5-min Rain = 0
KAHS 132057Z 14002KT 31/03 A2989 RMK A01 T03060034  RH  018%=      5-min Rain = 0
KAHS 132058Z 17004KT 31/04 A2989 RMK A01 T03090037  RH  018%=      5-min Rain = 0
KAHS 132059Z 15004KT 31/04 A2989 RMK A01 T03110036  RH  018%=      5-min Rain = 0
KAHS 132100Z 15003KT 31/03 A2989 RMK A01 T03100033  RH  017%=      5-min Rain = 0
KAHS 132101Z 14004KT 31/03 A2989 RMK A01 T03080033  RH  017%=      5-min Rain = 0
KAHS 132102Z 17004KT 31/03 A2989 RMK A01 T03070034  RH  018%=      5-min Rain = 0
KAHS 132103Z 15005KT 31/04 A2989 RMK A01 T03080036  RH  018%=      5-min Rain = 0
KAHS 132104Z 19006KT 31/03 A2989 RMK A01 T03070032  RH  017%=      5-min Rain = 0
KAHS 132105Z 20005KT 31/03 A2989 RMK A01 T03050034  RH  018%=      5-min Rain = 0
KAHS 132106Z 19008KT 31/03 A2989 RMK A01 T03060034  RH  018%=      5-min Rain = 0
KAHS 132107Z 19007KT 31/03 A2989 RMK A01 T03060034  RH  018%=      5-min Rain = 0
KAHS 132108Z 19006KT 31/04 A2989 RMK A01 T03070036  RH  018%=      5-min Rain = 0
KAHS 132109Z 22007KT 31/04 A2989 RMK A01 T03090035  RH  018%=      5-min Rain = 0
KAHS 132110Z 24007KT 31/03 A2989 RMK A01 T03090034  RH  017%=      5-min Rain = 0
KAHS 132111Z 20006G11KT 31/04 A2989 RMK A01 T03100036  RH  018%=      5-min Rain = 0
KAHS 132112Z 17007KT 31/04 A2989 RMK A01 T03100035  RH  017%=      5-min Rain = 0
KAHS 132113Z 18008KT 31/03 A2989 RMK A01 T03090034  RH  017%=      5-min Rain = 0
KAHS 132114Z 18004KT 31/04 A299 RMK A01 T03090036  RH  018%=      5-min Rain = 0
KAHS 132115Z 19007KT 31/04 A2989 RMK A01 T03110035  RH  017%=      5-min Rain = 0
KAHS 132116Z 21007KT 31/04 A299 RMK A01 T03120036  RH  017%=      5-min Rain = 0
KAHS 132117Z 23008KT 31/03 A2989 RMK A01 T03120034  RH  017%=      5-min Rain = 0
KAHS 132118Z 22005KT 31/03 A2989 RMK A01 T03110032  RH  017%=      5-min Rain = 0
KAHS 132119Z 23006KT 31/04 A2989 RMK A01 T03120035  RH  017%=      5-min Rain = 0
KAHS 132120Z 21006KT 31/04 A2989 RMK A01 T03110035  RH  017%=      5-min Rain = 0
KAHS 132121Z 20006KT 31/03 A2989 RMK A01 T03090032  RH  017%=      5-min Rain = 0
KAHS 132122Z 21004KT 31/03 A2989 RMK A01 T03080034  RH  018%=      5-min Rain = 0
KAHS 132123Z 21004KT 31/03 A2989 RMK A01 T03080034  RH  018%=      5-min Rain = 0
KAHS 132124Z 22003KT 31/04 A2989 RMK A01 T03090035  RH  018%=      5-min Rain = 0
KAHS 132125Z 21004KT 31/04 A2989 RMK A01 T03110036  RH  018%=      5-min Rain = 0
KAHS 132126Z 19007KT 31/04 A2989 RMK A01 T03130036  RH  017%=      5-min Rain = 0
KAHS 132127Z 18008KT 31/04 A2989 RMK A01 T03130036  RH  017%=      5-min Rain = 0
KAHS 132128Z 18008KT 31/04 A2989 RMK A01 T03120036  RH  017%=      5-min Rain = 0
KAHS 132129Z 17006KT 31/04 A2989 RMK A01 T03130037  RH  017%=      5-min Rain = 0
KAHS 132130Z 18008KT 31/04 A2989 RMK A01 T03130037  RH  017%=      5-min Rain = 0
KAHS 132131Z 22007KT 31/04 A2989 RMK A01 T03140037  RH  017%=      5-min Rain = 0
KAHS 132132Z 21007KT 31/03 A2989 RMK A01 T03110033  RH  017%=      5-min Rain = 0
KAHS 132133Z 20005KT 31/04 A2989 RMK A01 T03090035  RH  018%=      5-min Rain = 0
KAHS 132134Z 18006KT 31/04 A2989 RMK A01 T03100036  RH  018%=      5-min Rain = 0
KAHS 132135Z 20004KT 31/04 A2989 RMK A01 T03100035  RH  018%=      5-min Rain = 0
KAHS 132136Z 20004KT 31/04 A2989 RMK A01 T03120037  RH  018%=      5-min Rain = 0
KAHS 132137Z 23005G10KT 31/04 A2989 RMK A01 T03120036  RH  017%=      5-min Rain = 0
KAHS 132138Z 25010KT 31/04 A2989 RMK A01 T03120035  RH  017%=      5-min Rain = 0
KAHS 132139Z 25010KT 31/04 A2989 RMK A01 T03110035  RH  017%=      5-min Rain = 0
KAHS 132140Z 23008KT 31/04 A2989 RMK A01 T03120036  RH  017%=      5-min Rain = 0
KAHS 132141Z 21006KT 31/04 A2989 RMK A01 T03110036  RH  017%=      5-min Rain = 0
KAHS 132142Z 19003KT 31/04 A2989 RMK A01 T03130036  RH  017%=      5-min Rain = 0
KAHS 132143Z 15001KT 32/04 A2989 RMK A01 T03150035  RH  017%=      5-min Rain = 0
KAHS 132144Z 21005KT 32/04 A2989 RMK A01 T03150035  RH  017%=      5-min Rain = 0
KAHS 132145Z 21007KT 31/04 A2989 RMK A01 T03140036  RH  017%=      5-min Rain = 0
KAHS 132146Z 18007KT 31/04 A2989 RMK A01 T03140038  RH  017%=      5-min Rain = 0
KAHS 132147Z 21006KT 32/04 A2989 RMK A01 T03160039  RH  017%=      5-min Rain = 0
KAHS 132148Z 23006KT 32/04 A2989 RMK A01 T03160035  RH  017%=      5-min Rain = 0
KAHS 132149Z 24003KT 32/04 A2989 RMK A01 T03150035  RH  017%=      5-min Rain = 0
KAHS 132150Z 17006KT 32/04 A2989 RMK A01 T03150035  RH  017%=      5-min Rain = 0
KAHS 132151Z 18008KT 31/04 A2989 RMK A01 T03140036  RH  017%=      5-min Rain = 0
KAHS 132152Z 17008KT 31/04 A2989 RMK A01 T03130035  RH  017%=      5-min Rain = 0
KAHS 132153Z 16008KT 31/04 A2989 RMK A01 T03130036  RH  017%=      5-min Rain = 0
KAHS 132154Z 17006KT 31/04 A2989 RMK A01 T03130037  RH  017%=      5-min Rain = 0
KAHS 132155Z 17006KT 31/04 A2989 RMK A01 T03140036  RH  017%=      5-min Rain = 0
KAHS 132156Z 16006KT 31/04 A2989 RMK A01 T03140039  RH  018%=      5-min Rain = 0
KAHS 132157Z 17007KT 32/04 A2989 RMK A01 T03150037  RH  017%=      5-min Rain = 0
KAHS 132158Z 18008KT 31/04 A2989 RMK A01 T03130036  RH  017%=      5-min Rain = 0
KAHS 132159Z 18010KT 31/04 A2989 RMK A01 T03120037  RH  018%=      5-min Rain = 0
KAHS 132200Z 18009KT 31/04 A2989 RMK A01 T03110037  RH  018%=      5-min Rain = 0
KAHS 132201Z 20008KT 31/04 A2989 RMK A01 T03130038  RH  018%=      5-min Rain = 0
KAHS 132202Z 21006KT 31/04 A2989 RMK A01 T03130036  RH  017%=      5-min Rain = 0
KAHS 132203Z 24009KT 31/04 A2989 RMK A01 T03130036  RH  017%=      5-min Rain = 0
KAHS 132204Z 24008KT 31/04 A2989 RMK A01 T03130036  RH  017%=      5-min Rain = 0
KAHS 132205Z 24006KT 31/04 A2989 RMK A01 T03110035  RH  017%=      5-min Rain = 0
KAHS 132206Z 24007KT 31/04 A2989 RMK A01 T03120035  RH  017%=      5-min Rain = 0
KAHS 132207Z 23006KT 31/04 A2989 RMK A01 T03100035  RH  017%=      5-min Rain = 0
KAHS 132208Z 22007KT 31/04 A2989 RMK A01 T03110035  RH  017%=      5-min Rain = 0
KAHS 132209Z 20006KT 31/04 A2989 RMK A01 T03110036  RH  017%=      5-min Rain = 0
KAHS 132210Z 20005KT 31/03 A2989 RMK A01 T03100034  RH  017%=      5-min Rain = 0
KAHS 132211Z 18004KT 31/04 A2989 RMK A01 T03100035  RH  017%=      5-min Rain = 0
KAHS 132212Z 19004KT 31/04 A2989 RMK A01 T03110037  RH  018%=      5-min Rain = 0
KAHS 132213Z 17003KT 31/03 A2989 RMK A01 T03120034  RH  017%=      5-min Rain = 0
KAHS 132214Z 20004KT 31/04 A2989 RMK A01 T03120035  RH  017%=      5-min Rain = 0
KAHS 132215Z 21006KT 31/03 A2989 RMK A01 T03120034  RH  017%=      5-min Rain = 0
KAHS 132216Z 21006KT 31/04 A2989 RMK A01 T03120035  RH  017%=      5-min Rain = 0
KAHS 132217Z 21007KT 31/03 A2989 RMK A01 T03120034  RH  017%=      5-min Rain = 0
KAHS 132218Z 21007KT 31/03 A2989 RMK A01 T03120034  RH  017%=      5-min Rain = 0
KAHS 132219Z 21009KT 31/03 A2989 RMK A01 T03130034  RH  017%=      5-min Rain = 0
KAHS 132220Z 21008KT 31/03 A2989 RMK A01 T03100031  RH  017%=      5-min Rain = 0
KAHS 132221Z 22006KT 31/03 A2989 RMK A01 T03090032  RH  017%=      5-min Rain = 0
KAHS 132222Z 22007KT 31/03 A2989 RMK A01 T03090033  RH  017%=      5-min Rain = 0
KAHS 132223Z 22009KT 31/03 A2988 RMK A01 T03090032  RH  017%=      5-min Rain = 0
KAHS 132224Z 23009KT 31/03 A2988 RMK A01 T03100032  RH  017%=      5-min Rain = 0
KAHS 132225Z 23007KT 31/03 A2988 RMK A01 T03110032  RH  017%=      5-min Rain = 0
KAHS 132226Z 20007KT 31/03 A2988 RMK A01 T03110030  RH  017%=      5-min Rain = 0
KAHS 132227Z 20005KT 31/03 A2988 RMK A01 T03090028  RH  017%=      5-min Rain = 0
KAHS 132228Z 20003KT 31/03 A2988 RMK A01 T03080030  RH  017%=      5-min Rain = 0
KAHS 132229Z 22007KT 31/03 A2989 RMK A01 T03090031  RH  017%=      5-min Rain = 0
KAHS 132230Z 24008KT 31/03 A2989 RMK A01 T03080026  RH  017%=      5-min Rain = 0
KAHS 132231Z 24009KT 31/03 A2989 RMK A01 T03090026  RH  017%=      5-min Rain = 0
KAHS 132232Z 24010KT 31/03 A2989 RMK A01 T03090026  RH  016%=      5-min Rain = 0
KAHS 132233Z 22010KT 31/03 A2989 RMK A01 T03100026  RH  016%=      5-min Rain = 0
KAHS 132234Z 24008KT 31/03 A2989 RMK A01 T03100027  RH  016%=      5-min Rain = 0
KAHS 132235Z 24008KT 31/03 A2989 RMK A01 T03100027  RH  017%=      5-min Rain = 0
KAHS 132236Z 24006KT 31/03 A2989 RMK A01 T03100027  RH  016%=      5-min Rain = 0
KAHS 132237Z 24006KT 31/03 A2989 RMK A01 T03110029  RH  017%=      5-min Rain = 0
KAHS 132238Z 23005KT 31/03 A2989 RMK A01 T03110028  RH  017%=      5-min Rain = 0
KAHS 132239Z 24006KT 31/03 A2989 RMK A01 T03110028  RH  017%=      5-min Rain = 0
KAHS 132240Z 24008KT 31/03 A2989 RMK A01 T03100029  RH  017%=      5-min Rain = 0
KAHS 132241Z 23005KT 31/03 A2989 RMK A01 T03100030  RH  017%=      5-min Rain = 0
KAHS 132242Z 23004KT 31/03 A2989 RMK A01 T03100030  RH  017%=      5-min Rain = 0
KAHS 132243Z 23007KT 31/03 A2989 RMK A01 T03120031  RH  017%=      5-min Rain = 0
KAHS 132244Z 22007KT 31/03 A2989 RMK A01 T03120029  RH  016%=      5-min Rain = 0
KAHS 132245Z 22007KT 31/03 A2989 RMK A01 T03120026  RH  016%=      5-min Rain = 0
KAHS 132246Z 22006KT 31/03 A2989 RMK A01 T03100026  RH  016%=      5-min Rain = 0
KAHS 132247Z 22009KT 31/03 A2989 RMK A01 T03100026  RH  016%=      5-min Rain = 0
KAHS 132248Z 22007KT 31/02 A2989 RMK A01 T03080024  RH  016%=      5-min Rain = 0
KAHS 132249Z 21006KT 31/03 A2989 RMK A01 T03080025  RH  016%=      5-min Rain = 0
KAHS 132250Z 20009KT 31/03 A2989 RMK A01 T03080025  RH  017%=      5-min Rain = 0
KAHS 132251Z 20009KT 31/02 A2989 RMK A01 T03070023  RH  016%=      5-min Rain = 0
KAHS 132252Z 21009KT 31/02 A2989 RMK A01 T03070023  RH  016%=      5-min Rain = 0
KAHS 132253Z 22009KT 31/02 A2989 RMK A01 T03070023  RH  016%=      5-min Rain = 0
KAHS 132254Z 22007KT 31/02 A2989 RMK A01 T03080024  RH  016%=      5-min Rain = 0
KAHS 132255Z 23008KT 31/02 A2989 RMK A01 T03080023  RH  016%=      5-min Rain = 0
KAHS 132256Z 22007KT 31/02 A2989 RMK A01 T03070021  RH  016%=      5-min Rain = 0
KAHS 132257Z 23006KT 31/02 A2989 RMK A01 T03060021  RH  016%=      5-min Rain = 0
KAHS 132258Z 22006KT 31/02 A2989 RMK A01 T03070021  RH  016%=      5-min Rain = 0
KAHS 132259Z 21005KT 31/02 A2989 RMK A01 T03070022  RH  016%=      5-min Rain = 0
KAHS 132300Z 21005KT 31/02 A2989 RMK A01 T03070024  RH  016%=      5-min Rain = 0
KAHS 132301Z 21004KT 31/02 A2989 RMK A01 T03080024  RH  016%=      5-min Rain = 0
KAHS 132302Z 21007KT 31/03 A2989 RMK A01 T03090025  RH  016%=      5-min Rain = 0
KAHS 132303Z 22007KT 31/02 A2989 RMK A01 T03080024  RH  016%=      5-min Rain = 0
KAHS 132304Z 23007KT 31/02 A2989 RMK A01 T03070023  RH  016%=      5-min Rain = 0
KAHS 132305Z 24007KT 31/02 A2989 RMK A01 T03070024  RH  016%=      5-min Rain = 0
KAHS 132306Z 23007KT 31/02 A2989 RMK A01 T03070024  RH  016%=      5-min Rain = 0
KAHS 132307Z 22007KT 31/02 A2989 RMK A01 T03070024  RH  016%=      5-min Rain = 0
KAHS 132308Z 21006KT 31/02 A2989 RMK A01 T03060021  RH  016%=      5-min Rain = 0
KAHS 132309Z 23006KT 31/02 A2989 RMK A01 T03050022  RH  016%=      5-min Rain = 0
KAHS 132310Z 26008KT 31/02 A2989 RMK A01 T03050023  RH  017%=      5-min Rain = 0
KAHS 132311Z 26008KT 30/02 A2989 RMK A01 T03040023  RH  017%=      5-min Rain = 0
KAHS 132312Z 26008KT 30/02 A2989 RMK A01 T03040023  RH  017%=      5-min Rain = 0
KAHS 132313Z 24006KT 30/03 A2989 RMK A01 T03040025  RH  017%=      5-min Rain = 0
KAHS 132314Z 24007KT 31/03 A2989 RMK A01 T03050025  RH  017%=      5-min Rain = 0
KAHS 132315Z 24007KT 31/02 A2989 RMK A01 T03050024  RH  017%=      5-min Rain = 0
KAHS 132316Z 24006KT 31/02 A2989 RMK A01 T03050024  RH  017%=      5-min Rain = 0
KAHS 132317Z 24006KT 30/03 A2989 RMK A01 T03040025  RH  017%=      5-min Rain = 0
KAHS 132318Z 23006KT 30/02 A2989 RMK A01 T03040024  RH  017%=      5-min Rain = 0
KAHS 132319Z 23006KT 30/02 A2989 RMK A01 T03040024  RH  017%=      5-min Rain = 0
KAHS 132320Z 23005KT 30/02 A2989 RMK A01 T03030023  RH  017%=      5-min Rain = 0
KAHS 132321Z 22004KT 30/02 A2989 RMK A01 T03030024  RH  017%=      5-min Rain = 0
KAHS 132322Z 22005KT 30/03 A2989 RMK A01 T03030025  RH  017%=      5-min Rain = 0
KAHS 132323Z 23006KT 30/02 A2989 RMK A01 T03020024  RH  017%=      5-min Rain = 0
KAHS 132324Z 24006KT 30/02 A299 RMK A01 T03020023  RH  017%=      5-min Rain = 0
KAHS 132325Z 24006KT 30/02 A299 RMK A01 T03010024  RH  017%=      5-min Rain = 0
KAHS 132326Z 23005KT 30/03 A299 RMK A01 T03010025  RH  017%=      5-min Rain = 0
KAHS 132327Z 22004KT 30/02 A299 RMK A01 T03010024  RH  017%=      5-min Rain = 0
KAHS 132328Z 23005KT 30/03 A299 RMK A01 T03010025  RH  017%=      5-min Rain = 0
KAHS 132329Z 23003KT 30/03 A299 RMK A01 T03000027  RH  017%=      5-min Rain = 0
KAHS 132330Z 21004KT 30/03 A299 RMK A01 T03000028  RH  018%=      5-min Rain = 0
KAHS 132331Z 21005KT 30/03 A299 RMK A01 T03000029  RH  018%=      5-min Rain = 0
KAHS 132332Z 21006KT 30/03 A299 RMK A01 T02990028  RH  018%=      5-min Rain = 0
KAHS 132333Z 21006KT 30/03 A299 RMK A01 T02990028  RH  018%=      5-min Rain = 0
KAHS 132334Z 22005KT 30/03 A299 RMK A01 T02980029  RH  018%=      5-min Rain = 0
KAHS 132335Z 20004KT 30/03 A299 RMK A01 T02980030  RH  018%=      5-min Rain = 0
KAHS 132336Z 21005KT 30/03 A299 RMK A01 T02970031  RH  018%=      5-min Rain = 0
KAHS 132337Z 22004KT 30/03 A299 RMK A01 T02960032  RH  019%=      5-min Rain = 0
KAHS 132338Z 22006KT 29/03 A299 RMK A01 T02940033  RH  019%=      5-min Rain = 0
KAHS 132339Z 22005KT 29/03 A299 RMK A01 T02930034  RH  019%=      5-min Rain = 0
KAHS 132340Z 21006KT 29/03 A299 RMK A01 T02910034  RH  019%=      5-min Rain = 0
KAHS 132341Z 21005KT 29/04 A299 RMK A01 T02900035  RH  020%=      5-min Rain = 0
KAHS 132342Z 21005KT 29/04 A299 RMK A01 T02890036  RH  020%=      5-min Rain = 0
KAHS 132343Z 21005KT 29/04 A299 RMK A01 T02890037  RH  020%=      5-min Rain = 0
KAHS 132344Z 21006KT 29/04 A299 RMK A01 T02880037  RH  020%=      5-min Rain = 0
KAHS 132345Z 21006KT 29/04 A299 RMK A01 T02870039  RH  020%=      5-min Rain = 0
KAHS 132346Z 21006KT 29/04 A299 RMK A01 T02870040  RH  021%=      5-min Rain = 0
KAHS 132347Z 21005KT 29/04 A299 RMK A01 T02860042  RH  021%=      5-min Rain = 0
KAHS 132348Z 21005KT 29/04 A299 RMK A01 T02850042  RH  021%=      5-min Rain = 0
KAHS 132349Z 21004KT 28/04 A299 RMK A01 T02840043  RH  021%=      5-min Rain = 0
KAHS 132350Z 21005KT 28/04 A299 RMK A01 T02820043  RH  022%=      5-min Rain = 0
KAHS 132351Z 20005KT 28/04 A299 RMK A01 T02810044  RH  022%=      5-min Rain = 0
KAHS 132352Z 20005KT 28/04 A299 RMK A01 T02800044  RH  022%=      5-min Rain = 0
KAHS 132353Z 20004KT 28/04 A299 RMK A01 T02790044  RH  022%=      5-min Rain = 0
KAHS 132354Z 20004KT 28/04 A299 RMK A01 T02780044  RH  022%=      5-min Rain = 0
KAHS 132355Z 20004KT 28/04 A299 RMK A01 T02770044  RH  022%=      5-min Rain = 0
KAHS 132356Z 20004KT 28/04 A299 RMK A01 T02760043  RH  023%=      5-min Rain = 0
KAHS 132357Z 19004KT 28/04 A299 RMK A01 T02760042  RH  022%=      5-min Rain = 0
KAHS 132358Z 20004KT 28/04 A299 RMK A01 T02750042  RH  022%=      5-min Rain = 0
KAHS 132359Z 19004KT 27/04 A299 RMK A01 T02730041  RH  022%=      5-min Rain = 0
KAHS 140000Z 20004KT 27/04 A299 RMK A01 T02720040  RH  023%=      5-min Rain = 0
KAHS 140001Z 19004KT 27/04 A299 RMK A01 T02710040  RH  023%=      5-min Rain = 0
KAHS 140002Z 19004KT 27/04 A299 RMK A01 T02690040  RH  023%=      5-min Rain = 0
KAHS 140003Z 19004KT 27/04 A299 RMK A01 T02680040  RH  023%=      5-min Rain = 0
KAHS 140004Z 19004KT 27/04 A299 RMK A01 T02670040  RH  023%=      5-min Rain = 0
KAHS 140005Z 19005KT 27/04 A299 RMK A01 T02660040  RH  023%=      5-min Rain = 0
KAHS 140006Z 19005KT 27/04 A299 RMK A01 T02650041  RH  024%=      5-min Rain = 0
KAHS 140007Z 19005KT 26/04 A299 RMK A01 T02640041  RH  024%=      5-min Rain = 0
KAHS 140008Z 19005KT 26/04 A299 RMK A01 T02630041  RH  024%=      5-min Rain = 0
KAHS 140009Z 19005KT 26/04 A299 RMK A01 T02620042  RH  024%=      5-min Rain = 0
KAHS 140010Z 19005KT 26/04 A299 RMK A01 T02610042  RH  024%=      5-min Rain = 0
KAHS 140011Z 19005KT 26/04 A299 RMK A01 T02600042  RH  025%=      5-min Rain = 0
KAHS 140012Z 19005KT 26/04 A299 RMK A01 T02600043  RH  025%=      5-min Rain = 0
KAHS 140013Z 19006KT 26/04 A299 RMK A01 T02590043  RH  025%=      5-min Rain = 0
KAHS 140014Z 19005KT 26/04 A299 RMK A01 T02580043  RH  025%=      5-min Rain = 0
KAHS 140015Z 19005KT 26/04 A299 RMK A01 T02580044  RH  025%=      5-min Rain = 0
KAHS 140016Z 19006KT 26/04 A299 RMK A01 T02570044  RH  025%=      5-min Rain = 0
KAHS 140017Z 18006KT 26/05 A299 RMK A01 T02560045  RH  026%=      5-min Rain = 0
KAHS 140018Z 19006KT 26/05 A299 RMK A01 T02550045  RH  026%=      5-min Rain = 0
KAHS 140019Z 19005KT 25/05 A299 RMK A01 T02540046  RH  026%=      5-min Rain = 0
KAHS 140020Z 19005KT 25/05 A299 RMK A01 T02530046  RH  026%=      5-min Rain = 0
KAHS 140021Z 19005KT 25/05 A299 RMK A01 T02520047  RH  027%=      5-min Rain = 0
KAHS 140022Z 19005KT 25/05 A299 RMK A01 T02510047  RH  027%=      5-min Rain = 0
KAHS 140023Z 19004KT 25/05 A299 RMK A01 T02500048  RH  027%=      5-min Rain = 0
KAHS 140024Z 19005KT 25/05 A299 RMK A01 T02490048  RH  027%=      5-min Rain = 0
KAHS 140025Z 19005KT 25/05 A299 RMK A01 T02490048  RH  027%=      5-min Rain = 0
KAHS 140026Z 20004KT 25/05 A299 RMK A01 T02490048  RH  027%=      5-min Rain = 0
KAHS 140027Z 19005KT 25/05 A299 RMK A01 T02480047  RH  027%=      5-min Rain = 0
KAHS 140028Z 20005KT 25/05 A299 RMK A01 T02480047  RH  027%=      5-min Rain = 0
KAHS 140029Z 20005KT 25/05 A299 RMK A01 T02470047  RH  027%=      5-min Rain = 0
KAHS 140030Z 20005KT 25/05 A299 RMK A01 T02470046  RH  027%=      5-min Rain = 0
KAHS 140031Z 20005KT 25/05 A299 RMK A01 T02470045  RH  027%=      5-min Rain = 0
KAHS 140032Z 20005KT 25/05 A2991 RMK A01 T02470045  RH  027%=      5-min Rain = 0
KAHS 140033Z 20005KT 25/04 A2991 RMK A01 T02460044  RH  027%=      5-min Rain = 0
KAHS 140034Z 20005KT 25/04 A2991 RMK A01 T02450043  RH  027%=      5-min Rain = 0
KAHS 140035Z 20005KT 25/04 A2991 RMK A01 T02450043  RH  027%=      5-min Rain = 0
KAHS 140036Z 20005KT 24/04 A2991 RMK A01 T02440043  RH  027%=      5-min Rain = 0
KAHS 140037Z 19005KT 24/04 A2991 RMK A01 T02430042  RH  027%=      5-min Rain = 0
KAHS 140038Z 19005KT 24/04 A2991 RMK A01 T02430042  RH  027%=      5-min Rain = 0
KAHS 140039Z 19004KT 24/04 A2991 RMK A01 T02420043  RH  027%=      5-min Rain = 0
KAHS 140040Z 18005KT 24/04 A2991 RMK A01 T02410044  RH  028%=      5-min Rain = 0
KAHS 140041Z 18005KT 24/05 A2991 RMK A01 T02390045  RH  028%=      5-min Rain = 0
KAHS 140042Z 18005KT 24/05 A2991 RMK A01 T02380046  RH  029%=      5-min Rain = 0
KAHS 140043Z 18005KT 24/05 A2991 RMK A01 T02370046  RH  029%=      5-min Rain = 0
KAHS 140044Z 19005KT 24/05 A2991 RMK A01 T02370047  RH  029%=      5-min Rain = 0
KAHS 140045Z 18005KT 24/05 A2991 RMK A01 T02360046  RH  029%=      5-min Rain = 0
KAHS 140046Z 19005KT 24/05 A2991 RMK A01 T02360047  RH  029%=      5-min Rain = 0
KAHS 140047Z 19005KT 24/05 A2991 RMK A01 T02360047  RH  029%=      5-min Rain = 0
KAHS 140048Z 19005KT 24/05 A2991 RMK A01 T02360047  RH  029%=      5-min Rain = 0
KAHS 140049Z 19007KT 24/05 A2991 RMK A01 T02360047  RH  029%=      5-min Rain = 0
KAHS 140050Z 19006KT 24/05 A2991 RMK A01 T02360047  RH  029%=      5-min Rain = 0
KAHS 140051Z 19007KT 24/05 A2991 RMK A01 T02360047  RH  029%=      5-min Rain = 0
KAHS 140052Z 18006KT 24/05 A2991 RMK A01 T02360047  RH  029%=      5-min Rain = 0
KAHS 140053Z 18006KT 24/05 A2991 RMK A01 T02360048  RH  029%=      5-min Rain = 0
KAHS 140054Z 18006KT 24/05 A2991 RMK A01 T02360048  RH  030%=      5-min Rain = 0
KAHS 140055Z 18006KT 24/05 A2991 RMK A01 T02360048  RH  030%=      5-min Rain = 0
KAHS 140056Z 18005KT 24/05 A2991 RMK A01 T02360049  RH  030%=      5-min Rain = 0
KAHS 140057Z 18005KT 24/05 A2991 RMK A01 T02350049  RH  030%=      5-min Rain = 0
KAHS 140058Z 18006KT 24/05 A2991 RMK A01 T02350050  RH  030%=      5-min Rain = 0
KAHS 140059Z 18006KT 24/05 A2991 RMK A01 T02350050  RH  030%=      5-min Rain = 0
KAHS 140100Z 18006KT 23/05 A2991 RMK A01 T02340051  RH  030%=      5-min Rain = 0
KAHS 140101Z 18006KT 23/05 A2991 RMK A01 T02340051  RH  030%=      5-min Rain = 0
KAHS 140102Z 18007KT 24/05 A2991 RMK A01 T02350051  RH  030%=      5-min Rain = 0
KAHS 140103Z 18006KT 24/05 A2991 RMK A01 T02360051  RH  030%=      5-min Rain = 0
KAHS 140104Z 18006KT 24/05 A2991 RMK A01 T02360051  RH  030%=      5-min Rain = 0
KAHS 140105Z 18006KT 24/05 A2991 RMK A01 T02360051  RH  030%=      5-min Rain = 0
KAHS 140106Z 18006KT 24/05 A2991 RMK A01 T02360051  RH  030%=      5-min Rain = 0
KAHS 140107Z 18005KT 24/05 A2991 RMK A01 T02370052  RH  030%=      5-min Rain = 0
KAHS 140108Z 19005KT 24/05 A2991 RMK A01 T02360051  RH  030%=      5-min Rain = 0
KAHS 140109Z 19005KT 24/05 A2991 RMK A01 T02360052  RH  030%=      5-min Rain = 0
KAHS 140110Z 19005KT 24/05 A2991 RMK A01 T02350051  RH  030%=      5-min Rain = 0
KAHS 140111Z 18004KT 24/05 A2991 RMK A01 T02350051  RH  030%=      5-min Rain = 0
KAHS 140112Z 19004KT 24/05 A2991 RMK A01 T02350052  RH  030%=      5-min Rain = 0
KAHS 140113Z 19003KT 23/05 A2991 RMK A01 T02340052  RH  031%=      5-min Rain = 0
KAHS 140114Z 20003KT 23/05 A2991 RMK A01 T02320051  RH  031%=      5-min Rain = 0
KAHS 140115Z 21003KT 23/05 A2991 RMK A01 T02300050  RH  031%=      5-min Rain = 0
KAHS 140116Z 22003KT 23/05 A2991 RMK A01 T02290049  RH  031%=      5-min Rain = 0
KAHS 140117Z 21003KT 23/05 A2991 RMK A01 T02280049  RH  031%=      5-min Rain = 0
KAHS 140118Z 21003KT 23/05 A2991 RMK A01 T02280049  RH  031%=      5-min Rain = 0
KAHS 140119Z 21003KT 23/05 A2991 RMK A01 T02280050  RH  031%=      5-min Rain = 0
KAHS 140120Z 21003KT 23/05 A2991 RMK A01 T02280050  RH  031%=      5-min Rain = 0
KAHS 140121Z 21003KT 23/05 A2991 RMK A01 T02280050  RH  031%=      5-min Rain = 0
KAHS 140122Z 21003KT 23/05 A2991 RMK A01 T02280050  RH  031%=      5-min Rain = 0
KAHS 140123Z 21003KT 23/05 A2991 RMK A01 T02290051  RH  031%=      5-min Rain = 0
KAHS 140124Z 21003KT 23/05 A2991 RMK A01 T02300051  RH  031%=      5-min Rain = 0
KAHS 140125Z 21003KT 23/05 A2991 RMK A01 T02300051  RH  031%=      5-min Rain = 0
KAHS 140126Z 21003KT 23/05 A2991 RMK A01 T02290050  RH  031%=      5-min Rain = 0
KAHS 140127Z 22003KT 23/05 A2991 RMK A01 T02290049  RH  031%=      5-min Rain = 0
KAHS 140128Z 22003KT 23/05 A2991 RMK A01 T02280049  RH  031%=      5-min Rain = 0
KAHS 140129Z 22004KT 23/05 A2991 RMK A01 T02280049  RH  031%=      5-min Rain = 0
KAHS 140130Z 21003KT 23/05 A2991 RMK A01 T02290048  RH  031%=      5-min Rain = 0
KAHS 140131Z 22003KT 23/05 A2991 RMK A01 T02290047  RH  031%=      5-min Rain = 0
KAHS 140132Z 21003KT 23/05 A2991 RMK A01 T02290047  RH  031%=      5-min Rain = 0
KAHS 140133Z 21003KT 23/05 A2991 RMK A01 T02290046  RH  030%=      5-min Rain = 0
KAHS 140134Z 21003KT 23/05 A2991 RMK A01 T02290045  RH  030%=      5-min Rain = 0
KAHS 140135Z 21003KT 23/05 A2991 RMK A01 T02290045  RH  030%=      5-min Rain = 0
KAHS 140136Z 21003KT 23/04 A2991 RMK A01 T02280044  RH  030%=      5-min Rain = 0
KAHS 140137Z 21003KT 23/04 A2991 RMK A01 T02280044  RH  030%=      5-min Rain = 0
KAHS 140138Z 21003KT 23/04 A2991 RMK A01 T02280044  RH  030%=      5-min Rain = 0
KAHS 140139Z 21003KT 23/04 A2991 RMK A01 T02280044  RH  030%=      5-min Rain = 0
KAHS 140140Z 21004KT 23/04 A2991 RMK A01 T02270044  RH  030%=      5-min Rain = 0
KAHS 140141Z 21004KT 23/04 A2991 RMK A01 T02270044  RH  030%=      5-min Rain = 0
KAHS 140142Z 21004KT 23/04 A2991 RMK A01 T02260044  RH  031%=      5-min Rain = 0
KAHS 140143Z 21005KT 23/05 A2991 RMK A01 T02250045  RH  031%=      5-min Rain = 0
KAHS 140144Z 21005KT 23/05 A2992 RMK A01 T02250045  RH  031%=      5-min Rain = 0
KAHS 140145Z 21005KT 22/05 A2992 RMK A01 T02240045  RH  031%=      5-min Rain = 0
KAHS 140146Z 21005KT 22/05 A2992 RMK A01 T02240045  RH  031%=      5-min Rain = 0
KAHS 140147Z 21005KT 22/05 A2992 RMK A01 T02240046  RH  031%=      5-min Rain = 0
KAHS 140148Z 21005KT 22/05 A2992 RMK A01 T02230046  RH  031%=      5-min Rain = 0
KAHS 140149Z 21006KT 22/05 A2992 RMK A01 T02230046  RH  032%=      5-min Rain = 0
KAHS 140150Z 21005KT 22/05 A2992 RMK A01 T02230047  RH  032%=      5-min Rain = 0
KAHS 140151Z 21006KT 22/05 A2992 RMK A01 T02230047  RH  032%=      5-min Rain = 0
KAHS 140152Z 21005KT 22/05 A2992 RMK A01 T02230047  RH  032%=      5-min Rain = 0
KAHS 140153Z 21005KT 22/05 A2992 RMK A01 T02220047  RH  032%=      5-min Rain = 0
KAHS 140154Z 21005KT 22/05 A2992 RMK A01 T02220048  RH  032%=      5-min Rain = 0
KAHS 140155Z 21005KT 22/05 A2992 RMK A01 T02220048  RH  032%=      5-min Rain = 0
KAHS 140156Z 22005KT 22/05 A2992 RMK A01 T02230048  RH  032%=      5-min Rain = 0
KAHS 140157Z 22005KT 22/05 A2992 RMK A01 T02240048  RH  032%=      5-min Rain = 0
KAHS 140158Z 22004KT 22/05 A2992 RMK A01 T02240047  RH  032%=      5-min Rain = 0
KAHS 140159Z 22005KT 22/05 A2992 RMK A01 T02240047  RH  032%=      5-min Rain = 0
KAHS 140200Z 22005KT 22/05 A2992 RMK A01 T02240047  RH  032%=      5-min Rain = 0
KAHS 140201Z 22005KT 22/05 A2992 RMK A01 T02240047  RH  032%=      5-min Rain = 0
KAHS 140202Z 22006KT 22/05 A2992 RMK A01 T02240047  RH  031%=      5-min Rain = 0
KAHS 140203Z 22006KT 22/05 A2992 RMK A01 T02240047  RH  032%=      5-min Rain = 0
KAHS 140204Z 21006KT 22/05 A2992 RMK A01 T02240046  RH  031%=      5-min Rain = 0
KAHS 140205Z 21006KT 22/05 A2992 RMK A01 T02240047  RH  032%=      5-min Rain = 0
KAHS 140206Z 22006KT 22/05 A2992 RMK A01 T02240047  RH  032%=      5-min Rain = 0
KAHS 140207Z 21005KT 22/05 A2992 RMK A01 T02230048  RH  032%=      5-min Rain = 0
KAHS 140208Z 21006KT 22/05 A2992 RMK A01 T02230048  RH  032%=      5-min Rain = 0
KAHS 140209Z 22006KT 22/05 A2992 RMK A01 T02230049  RH  032%=      5-min Rain = 0
KAHS 140210Z 21006KT 22/05 A2992 RMK A01 T02230050  RH  032%=      5-min Rain = 0
KAHS 140211Z 21006KT 22/05 A2992 RMK A01 T02230050  RH  032%=      5-min Rain = 0
KAHS 140212Z 22006KT 22/05 A2992 RMK A01 T02230050  RH  033%=      5-min Rain = 0
KAHS 140213Z 21006KT 22/05 A2992 RMK A01 T02230050  RH  032%=      5-min Rain = 0
KAHS 140214Z 21006KT 22/05 A2992 RMK A01 T02240051  RH  033%=      5-min Rain = 0
KAHS 140215Z 22006KT 22/05 A2992 RMK A01 T02240051  RH  033%=      5-min Rain = 0
KAHS 140216Z 22006KT 22/05 A2992 RMK A01 T02230052  RH  033%=      5-min Rain = 0
KAHS 140217Z 21007KT 22/05 A2992 RMK A01 T02230052  RH  033%=      5-min Rain = 0
KAHS 140218Z 21007KT 22/05 A2992 RMK A01 T02240052  RH  033%=      5-min Rain = 0
KAHS 140219Z 21006KT 23/05 A2992 RMK A01 T02250052  RH  032%=      5-min Rain = 0
KAHS 140220Z 21006KT 23/05 A2992 RMK A01 T02260052  RH  032%=      5-min Rain = 0
KAHS 140221Z 21007KT 23/05 A2992 RMK A01 T02260051  RH  032%=      5-min Rain = 0
KAHS 140222Z 21007KT 23/05 A2992 RMK A01 T02270051  RH  032%=      5-min Rain = 0
KAHS 140223Z 21007KT 23/05 A2992 RMK A01 T02280050  RH  031%=      5-min Rain = 0
KAHS 140224Z 21006KT 23/05 A2992 RMK A01 T02280049  RH  031%=      5-min Rain = 0
KAHS 140225Z 22006KT 23/05 A2992 RMK A01 T02290050  RH  031%=      5-min Rain = 0
KAHS 140226Z 22006KT 23/05 A2992 RMK A01 T02280050  RH  031%=      5-min Rain = 0
KAHS 140227Z 22006KT 23/05 A2992 RMK A01 T02280050  RH  032%=      5-min Rain = 0
KAHS 140228Z 22006KT 23/05 A2992 RMK A01 T02270050  RH  032%=      5-min Rain = 0
KAHS 140229Z 22006KT 23/05 A2992 RMK A01 T02280051  RH  032%=      5-min Rain = 0
KAHS 140230Z 21007KT 23/05 A2992 RMK A01 T02290050  RH  031%=      5-min Rain = 0
KAHS 140231Z 21007KT 23/05 A2992 RMK A01 T02300050  RH  031%=      5-min Rain = 0
KAHS 140232Z 21006KT 23/05 A2992 RMK A01 T02310050  RH  031%=      5-min Rain = 0
KAHS 140233Z 21006KT 23/05 A2992 RMK A01 T02310050  RH  031%=      5-min Rain = 0
KAHS 140234Z 21006KT 23/05 A2992 RMK A01 T02320050  RH  031%=      5-min Rain = 0
KAHS 140235Z 21006KT 23/05 A2992 RMK A01 T02320051  RH  031%=      5-min Rain = 0
KAHS 140236Z 21007KT 23/05 A2993 RMK A01 T02320051  RH  031%=      5-min Rain = 0
KAHS 140237Z 21007KT 23/05 A2993 RMK A01 T02310051  RH  031%=      5-min Rain = 0
KAHS 140238Z 20007KT 23/05 A2993 RMK A01 T02310052  RH  031%=      5-min Rain = 0
KAHS 140239Z 19006KT 23/05 A2993 RMK A01 T02300052  RH  031%=      5-min Rain = 0
KAHS 140240Z 20007KT 23/05 A2993 RMK A01 T02270053  RH  032%=      5-min Rain = 0
KAHS 140241Z 19007KT 23/05 A2993 RMK A01 T02250054  RH  033%=      5-min Rain = 0
KAHS 140242Z 19007KT 23/05 A2993 RMK A01 T02250053  RH  033%=      5-min Rain = 0
KAHS 140243Z 19007KT 23/05 A2993 RMK A01 T02250053  RH  033%=      5-min Rain = 0
KAHS 140244Z 19006KT 23/05 A2993 RMK A01 T02250052  RH  032%=      5-min Rain = 0
KAHS 140245Z 19006KT 23/05 A2993 RMK A01 T02260051  RH  032%=      5-min Rain = 0
KAHS 140246Z 19006KT 23/05 A2993 RMK A01 T02260051  RH  032%=      5-min Rain = 0
KAHS 140247Z 19007KT 23/05 A2993 RMK A01 T02260051  RH  032%=      5-min Rain = 0
KAHS 140248Z 19006KT 23/05 A2993 RMK A01 T02270051  RH  032%=      5-min Rain = 0
KAHS 140249Z 19007KT 23/05 A2993 RMK A01 T02270051  RH  032%=      5-min Rain = 0
KAHS 140250Z 19007KT 23/05 A2993 RMK A01 T02270051  RH  032%=      5-min Rain = 0
KAHS 140251Z 18007KT 23/05 A2993 RMK A01 T02260052  RH  032%=      5-min Rain = 0
KAHS 140252Z 18008KT 23/05 A2993 RMK A01 T02270053  RH  032%=      5-min Rain = 0
KAHS 140253Z 18008KT 23/05 A2993 RMK A01 T02260053  RH  032%=      5-min Rain = 0
KAHS 140254Z 17007KT 23/05 A2993 RMK A01 T02260053  RH  032%=      5-min Rain = 0
KAHS 140255Z 16007KT 23/05 A2993 RMK A01 T02260054  RH  033%=      5-min Rain = 0
KAHS 140256Z 16007KT 23/06 A2993 RMK A01 T02250055  RH  033%=      5-min Rain = 0
KAHS 140257Z 18008KT 23/05 A2993 RMK A01 T02250054  RH  033%=      5-min Rain = 0
KAHS 140258Z 18009KT 23/05 A2993 RMK A01 T02280054  RH  032%=      5-min Rain = 0
KAHS 140259Z 17007KT 23/05 A2993 RMK A01 T02310054  RH  032%=      5-min Rain = 0
KAHS 140300Z 18007KT 23/05 A2993 RMK A01 T02310054  RH  032%=      5-min Rain = 0
KAHS 140301Z 18008KT 23/05 A2993 RMK A01 T02320054  RH  032%=      5-min Rain = 0
KAHS 140302Z 19006KT 23/06 A2994 RMK A01 T02320055  RH  032%=      5-min Rain = 0
KAHS 140303Z 19007KT 23/06 A2994 RMK A01 T02320055  RH  032%=      5-min Rain = 0
KAHS 140304Z 19007KT 23/06 A2994 RMK A01 T02320056  RH  032%=      5-min Rain = 0
KAHS 140305Z 20008KT 23/06 A2993 RMK A01 T02320057  RH  032%=      5-min Rain = 0
KAHS 140306Z 20010KT 23/06 A2993 RMK A01 T02320058  RH  032%=      5-min Rain = 0
KAHS 140307Z 20008KT 23/06 A2993 RMK A01 T02340059  RH  032%=      5-min Rain = 0
KAHS 140308Z 20007KT 23/06 A2994 RMK A01 T02340059  RH  032%=      5-min Rain = 0
KAHS 140309Z 20008KT 23/06 A2994 RMK A01 T02340060  RH  032%=      5-min Rain = 0
KAHS 140310Z 21007KT 23/06 A2994 RMK A01 T02340059  RH  032%=      5-min Rain = 0
KAHS 140311Z 20007KT 23/06 A2993 RMK A01 T02340059  RH  032%=      5-min Rain = 0
KAHS 140312Z 20008KT 23/06 A2993 RMK A01 T02340058  RH  032%=      5-min Rain = 0
KAHS 140313Z 20007KT 24/06 A2993 RMK A01 T02350058  RH  032%=      5-min Rain = 0
KAHS 140314Z 21007KT 24/06 A2993 RMK A01 T02360057  RH  031%=      5-min Rain = 0
KAHS 140315Z 21008KT 24/06 A2994 RMK A01 T02360057  RH  031%=      5-min Rain = 0
KAHS 140316Z 21008KT 24/06 A2994 RMK A01 T02360057  RH  031%=      5-min Rain = 0
KAHS 140317Z 21009KT 24/06 A2994 RMK A01 T02360057  RH  031%=      5-min Rain = 0
KAHS 140318Z 21007KT 24/06 A2993 RMK A01 T02360057  RH  031%=      5-min Rain = 0
KAHS 140319Z 21006KT 24/06 A2993 RMK A01 T02360058  RH  032%=      5-min Rain = 0
KAHS 140320Z 20007KT 24/06 A2993 RMK A01 T02350058  RH  032%=      5-min Rain = 0
KAHS 140321Z 21007KT 24/06 A2993 RMK A01 T02350058  RH  032%=      5-min Rain = 0
KAHS 140322Z 21006KT 24/06 A2994 RMK A01 T02350058  RH  032%=      5-min Rain = 0
KAHS 140323Z 22007KT 23/06 A2994 RMK A01 T02340058  RH  032%=      5-min Rain = 0
KAHS 140324Z 22007KT 23/06 A2994 RMK A01 T02340058  RH  032%=      5-min Rain = 0
KAHS 140325Z 23006KT 23/06 A2994 RMK A01 T02340058  RH  032%=      5-min Rain = 0
KAHS 140326Z 23006KT 23/06 A2994 RMK A01 T02340059  RH  032%=      5-min Rain = 0
KAHS 140327Z 23006KT 23/06 A2994 RMK A01 T02340059  RH  032%=      5-min Rain = 0
KAHS 140328Z 23007KT 23/06 A2994 RMK A01 T02330059  RH  032%=      5-min Rain = 0
KAHS 140329Z 22007KT 23/06 A2994 RMK A01 T02330059  RH  033%=      5-min Rain = 0
KAHS 140330Z 22006KT 23/06 A2994 RMK A01 T02320059  RH  033%=      5-min Rain = 0
KAHS 140331Z 22005KT 23/06 A2994 RMK A01 T02310059  RH  033%=      5-min Rain = 0
KAHS 140332Z 22005KT 23/06 A2994 RMK A01 T02310060  RH  033%=      5-min Rain = 0
KAHS 140333Z 22006KT 23/06 A2994 RMK A01 T02300060  RH  033%=      5-min Rain = 0
KAHS 140334Z 20006KT 23/06 A2994 RMK A01 T02300060  RH  033%=      5-min Rain = 0
KAHS 140335Z 20006KT 23/06 A2994 RMK A01 T02300061  RH  033%=      5-min Rain = 0
KAHS 140336Z 19005KT 23/06 A2994 RMK A01 T02290061  RH  034%=      5-min Rain = 0
KAHS 140337Z 19005KT 23/06 A2994 RMK A01 T02290062  RH  034%=      5-min Rain = 0
KAHS 140338Z 19005KT 23/06 A2994 RMK A01 T02270061  RH  034%=      5-min Rain = 0
KAHS 140339Z 19005KT 23/06 A2994 RMK A01 T02270061  RH  034%=      5-min Rain = 0
KAHS 140340Z 20005KT 23/06 A2994 RMK A01 T02270060  RH  034%=      5-min Rain = 0
KAHS 140341Z 20005KT 23/06 A2995 RMK A01 T02260061  RH  034%=      5-min Rain = 0
KAHS 140342Z 21005KT 23/06 A2995 RMK A01 T02260062  RH  034%=      5-min Rain = 0
KAHS 140343Z 20006KT 23/06 A2995 RMK A01 T02270062  RH  034%=      5-min Rain = 0
KAHS 140344Z 21006KT 23/06 A2995 RMK A01 T02270063  RH  034%=      5-min Rain = 0
KAHS 140345Z 20005KT 23/06 A2995 RMK A01 T02270063  RH  035%=      5-min Rain = 0
KAHS 140346Z 20006KT 23/06 A2994 RMK A01 T02280063  RH  035%=      5-min Rain = 0
KAHS 140347Z 21007KT 23/06 A2994 RMK A01 T02280062  RH  034%=      5-min Rain = 0
KAHS 140348Z 21007KT 23/06 A2995 RMK A01 T02280061  RH  034%=      5-min Rain = 0
KAHS 140349Z 20007KT 23/06 A2994 RMK A01 T02290060  RH  034%=      5-min Rain = 0
KAHS 140350Z 20006KT 23/06 A2994 RMK A01 T02290060  RH  034%=      5-min Rain = 0
KAHS 140351Z 21008KT 23/06 A2994 RMK A01 T02290060  RH  033%=      5-min Rain = 0
KAHS 140352Z 20007KT 23/06 A2994 RMK A01 T02290059  RH  033%=      5-min Rain = 0
KAHS 140353Z 20007KT 23/06 A2994 RMK A01 T02290059  RH  033%=      5-min Rain = 0
KAHS 140354Z 20006KT 23/06 A2995 RMK A01 T02300059  RH  033%=      5-min Rain = 0
KAHS 140355Z 21005KT 23/06 A2995 RMK A01 T02290059  RH  033%=      5-min Rain = 0
KAHS 140356Z 20006KT 23/06 A2995 RMK A01 T02280059  RH  033%=      5-min Rain = 0
KAHS 140357Z 21007KT 23/06 A2995 RMK A01 T02280059  RH  033%=      5-min Rain = 0
KAHS 140358Z 21006KT 23/06 A2995 RMK A01 T02290058  RH  033%=      5-min Rain = 0
KAHS 140359Z 21008KT 23/06 A2995 RMK A01 T02280059  RH  033%=      5-min Rain = 0
KAHS 140400Z 21005KT 23/06 A2995 RMK A01 T02280059  RH  033%=      5-min Rain = 0
KAHS 140401Z 21005KT 23/06 A2995 RMK A01 T02280059  RH  034%=      5-min Rain = 0
KAHS 140402Z 21006KT 23/06 A2995 RMK A01 T02270059  RH  034%=      5-min Rain = 0
KAHS 140403Z 20005KT 23/06 A2995 RMK A01 T02260059  RH  034%=      5-min Rain = 0
KAHS 140404Z 20006KT 23/06 A2995 RMK A01 T02260059  RH  034%=      5-min Rain = 0
KAHS 140405Z 20005KT 23/06 A2995 RMK A01 T02260059  RH  034%=      5-min Rain = 0
KAHS 140406Z 21005KT 23/06 A2995 RMK A01 T02260059  RH  034%=      5-min Rain = 0
KAHS 140407Z 22005KT 23/06 A2995 RMK A01 T02250060  RH  034%=      5-min Rain = 0
KAHS 140408Z 22004KT 22/06 A2995 RMK A01 T02240060  RH  034%=      5-min Rain = 0
KAHS 140409Z 21005KT 22/06 A2995 RMK A01 T02230060  RH  035%=      5-min Rain = 0
KAHS 140410Z 22005KT 22/06 A2995 RMK A01 T02230060  RH  035%=      5-min Rain = 0
KAHS 140411Z 22006KT 22/06 A2995 RMK A01 T02220060  RH  035%=      5-min Rain = 0
KAHS 140412Z 21006KT 22/06 A2995 RMK A01 T02230059  RH  035%=      5-min Rain = 0
KAHS 140413Z 21006KT 22/06 A2995 RMK A01 T02230059  RH  035%=      5-min Rain = 0
KAHS 140414Z 21006KT 22/06 A2995 RMK A01 T02230059  RH  034%=      5-min Rain = 0
KAHS 140415Z 22006KT 22/06 A2995 RMK A01 T02230058  RH  034%=      5-min Rain = 0
KAHS 140416Z 21007KT 22/06 A2995 RMK A01 T02240058  RH  034%=      5-min Rain = 0
KAHS 140417Z 22008KT 23/06 A2995 RMK A01 T02250058  RH  034%=      5-min Rain = 0
KAHS 140418Z 21007KT 23/06 A2995 RMK A01 T02260057  RH  034%=      5-min Rain = 0
KAHS 140419Z 22007KT 23/06 A2995 RMK A01 T02260057  RH  033%=      5-min Rain = 0
KAHS 140420Z 21008KT 23/06 A2995 RMK A01 T02270058  RH  034%=      5-min Rain = 0
KAHS 140421Z 21007KT 23/06 A2995 RMK A01 T02260058  RH  033%=      5-min Rain = 0
KAHS 140422Z 21005KT 23/06 A2995 RMK A01 T02260058  RH  034%=      5-min Rain = 0
KAHS 140423Z 22007KT 23/06 A2995 RMK A01 T02260058  RH  034%=      5-min Rain = 0
KAHS 140424Z 22006KT 23/06 A2995 RMK A01 T02260058  RH  034%=      5-min Rain = 0
KAHS 140425Z 22005KT 23/06 A2995 RMK A01 T02250058  RH  034%=      5-min Rain = 0
KAHS 140426Z 21007KT 22/06 A2995 RMK A01 T02240058  RH  034%=      5-min Rain = 0
KAHS 140427Z 22006KT 22/06 A2995 RMK A01 T02240058  RH  034%=      5-min Rain = 0
KAHS 140428Z 21005KT 22/06 A2995 RMK A01 T02240058  RH  034%=      5-min Rain = 0
KAHS 140429Z 22006KT 22/06 A2995 RMK A01 T02230058  RH  034%=      5-min Rain = 0
KAHS 140430Z 22006KT 22/06 A2996 RMK A01 T02220058  RH  035%=      5-min Rain = 0
KAHS 140431Z 23006KT 22/06 A2996 RMK A01 T02220059  RH  035%=      5-min Rain = 0
KAHS 140432Z 24006KT 22/06 A2996 RMK A01 T02210059  RH  035%=      5-min Rain = 0
KAHS 140433Z 24007KT 22/06 A2996 RMK A01 T02200060  RH  035%=      5-min Rain = 0
KAHS 140434Z 24008KT 22/06 A2996 RMK A01 T02190059  RH  035%=      5-min Rain = 0
KAHS 140435Z 23008KT 22/06 A2996 RMK A01 T02190059  RH  035%=      5-min Rain = 0
KAHS 140436Z 23008KT 22/06 A2995 RMK A01 T02190059  RH  035%=      5-min Rain = 0
KAHS 140437Z 23008KT 22/06 A2995 RMK A01 T02210059  RH  035%=      5-min Rain = 0
KAHS 140438Z 22007KT 22/06 A2995 RMK A01 T02220059  RH  035%=      5-min Rain = 0
KAHS 140439Z 22008KT 22/06 A2995 RMK A01 T02220059  RH  035%=      5-min Rain = 0
KAHS 140440Z 22009KT 22/06 A2995 RMK A01 T02220059  RH  035%=      5-min Rain = 0
KAHS 140441Z 22009KT 22/06 A2995 RMK A01 T02240059  RH  034%=      5-min Rain = 0
KAHS 140442Z 22008KT 23/06 A2995 RMK A01 T02250059  RH  034%=      5-min Rain = 0
KAHS 140443Z 23006KT 23/06 A2995 RMK A01 T02250059  RH  034%=      5-min Rain = 0
KAHS 140444Z 23007KT 22/06 A2995 RMK A01 T02240059  RH  034%=      5-min Rain = 0
KAHS 140445Z 23008KT 22/06 A2995 RMK A01 T02240059  RH  034%=      5-min Rain = 0
KAHS 140446Z 23008KT 22/06 A2995 RMK A01 T02240058  RH  034%=      5-min Rain = 0
KAHS 140447Z 23008KT 22/06 A2995 RMK A01 T02240059  RH  034%=      5-min Rain = 0
KAHS 140448Z 23006KT 22/06 A2995 RMK A01 T02240059  RH  034%=      5-min Rain = 0
KAHS 140449Z 23007KT 22/06 A2995 RMK A01 T02230059  RH  034%=      5-min Rain = 0
KAHS 140450Z 24007KT 22/06 A2995 RMK A01 T02230059  RH  034%=      5-min Rain = 0
KAHS 140451Z 24006KT 22/06 A2995 RMK A01 T02220059  RH  035%=      5-min Rain = 0
KAHS 140452Z 24007KT 22/06 A2995 RMK A01 T02200059  RH  035%=      5-min Rain = 0
KAHS 140453Z 24007KT 22/06 A2995 RMK A01 T02200059  RH  035%=      5-min Rain = 0
KAHS 140454Z 25007KT 22/06 A2995 RMK A01 T02190059  RH  035%=      5-min Rain = 0
KAHS 140455Z 25007KT 22/06 A2995 RMK A01 T02190059  RH  035%=      5-min Rain = 0
KAHS 140456Z 25008KT 22/06 A2995 RMK A01 T02190059  RH  035%=      5-min Rain = 0
KAHS 140457Z 24007KT 22/06 A2995 RMK A01 T02190059  RH  036%=      5-min Rain = 0
KAHS 140458Z 24008KT 22/06 A2995 RMK A01 T02190059  RH  035%=      5-min Rain = 0
KAHS 140459Z 24007KT 22/06 A2995 RMK A01 T02190059  RH  035%=      5-min Rain = 0

Page generated in 0.1254 seconds.